Observation data for Plainview on 02/23/2021      Previous  Date  Next       Current Mesonet Observations  Soil Data  Daily Summary Page  Observations in Plain Language
KPVS 230600Z 33003KT 03/M06 A301 RMK A01 T00251062  RH  053%=      5-min Rain = 0
KPVS 230601Z 33003KT 03/M06 A301 RMK A01 T00261062  RH  052%=      5-min Rain = 0
KPVS 230602Z 33003KT 03/M06 A301 RMK A01 T00271062  RH  052%=      5-min Rain = 0
KPVS 230603Z 33003KT 03/M06 A301 RMK A01 T00271061  RH  052%=      5-min Rain = 0
KPVS 230604Z 33003KT 03/M06 A301 RMK A01 T00271061  RH  053%=      5-min Rain = 0
KPVS 230605Z 33003KT 03/M06 A301 RMK A01 T00271060  RH  053%=      5-min Rain = 0
KPVS 230606Z 33003KT 03/M06 A301 RMK A01 T00261061  RH  053%=      5-min Rain = 0
KPVS 230607Z 33003KT 03/M06 A301 RMK A01 T00251061  RH  053%=      5-min Rain = 0
KPVS 230608Z 33003KT 03/M06 A301 RMK A01 T00251061  RH  053%=      5-min Rain = 0
KPVS 230609Z 33003KT 02/M06 A301 RMK A01 T00241061  RH  053%=      5-min Rain = 0
KPVS 230610Z 33004KT 02/M06 A3009 RMK A01 T00231061  RH  054%=      5-min Rain = 0
KPVS 230611Z 33004KT 02/M06 A3009 RMK A01 T00231060  RH  054%=      5-min Rain = 0
KPVS 230612Z 33004KT 02/M06 A3009 RMK A01 T00231060  RH  054%=      5-min Rain = 0
KPVS 230613Z 33004KT 02/M06 A3009 RMK A01 T00231060  RH  054%=      5-min Rain = 0
KPVS 230614Z 33004KT 02/M06 A3009 RMK A01 T00231060  RH  054%=      5-min Rain = 0
KPVS 230615Z 33003KT 02/M06 A3009 RMK A01 T00241060  RH  054%=      5-min Rain = 0
KPVS 230616Z 33003KT 02/M06 A3009 RMK A01 T00241060  RH  054%=      5-min Rain = 0
KPVS 230617Z 33003KT 03/M06 A3009 RMK A01 T00251059  RH  054%=      5-min Rain = 0
KPVS 230618Z 33003KT 03/M06 A3009 RMK A01 T00261059  RH  053%=      5-min Rain = 0
KPVS 230619Z 34002KT 03/M06 A3009 RMK A01 T00271059  RH  053%=      5-min Rain = 0
KPVS 230620Z 34002KT 03/M06 A3009 RMK A01 T00281059  RH  053%=      5-min Rain = 0
KPVS 230621Z 34002KT 03/M06 A3009 RMK A01 T00281059  RH  053%=      5-min Rain = 0
KPVS 230622Z 34002KT 03/M06 A3009 RMK A01 T00291059  RH  052%=      5-min Rain = 0
KPVS 230623Z 34002KT 03/M06 A3009 RMK A01 T00291060  RH  052%=      5-min Rain = 0
KPVS 230624Z 34002KT 03/M06 A3009 RMK A01 T00291060  RH  052%=      5-min Rain = 0
KPVS 230625Z 34002KT 03/M06 A3009 RMK A01 T00291060  RH  052%=      5-min Rain = 0
KPVS 230626Z 34002KT 03/M06 A3009 RMK A01 T00291056  RH  053%=      5-min Rain = 0
KPVS 230627Z 33001KT 03/M05 A3009 RMK A01 T00271052  RH  056%=      5-min Rain = 0
KPVS 230628Z 33001KT 03/M05 A3009 RMK A01 T00251053  RH  057%=      5-min Rain = 0
KPVS 230629Z 33001KT 02/M06 A3009 RMK A01 T00231055  RH  056%=      5-min Rain = 0
KPVS 230630Z 34001KT 02/M06 A3009 RMK A01 T00221059  RH  055%=      5-min Rain = 0
KPVS 230631Z 34001KT 02/M06 A3009 RMK A01 T00231059  RH  055%=      5-min Rain = 0
KPVS 230632Z 34001KT 02/M06 A3009 RMK A01 T00231059  RH  055%=      5-min Rain = 0
KPVS 230633Z 34001KT 02/M06 A3009 RMK A01 T00241059  RH  054%=      5-min Rain = 0
KPVS 230634Z 34001KT 02/M06 A3009 RMK A01 T00241059  RH  054%=      5-min Rain = 0
KPVS 230635Z 34001KT 02/M06 A3009 RMK A01 T00241059  RH  054%=      5-min Rain = 0
KPVS 230636Z 34001KT 02/M06 A3009 RMK A01 T00241058  RH  055%=      5-min Rain = 0
KPVS 230637Z 34002KT 02/M06 A3009 RMK A01 T00231056  RH  056%=      5-min Rain = 0
KPVS 230638Z 34002KT 02/M06 A3009 RMK A01 T00211057  RH  057%=      5-min Rain = 0
KPVS 230639Z 34002KT 02/M06 A3009 RMK A01 T00191057  RH  057%=      5-min Rain = 0
KPVS 230640Z 33002KT 02/M06 A3009 RMK A01 T00181056  RH  058%=      5-min Rain = 0
KPVS 230641Z 33002KT 02/M06 A3009 RMK A01 T00161057  RH  058%=      5-min Rain = 0
KPVS 230642Z 33002KT 01/M06 A3009 RMK A01 T00141058  RH  059%=      5-min Rain = 0
KPVS 230643Z 33002KT 01/M06 A3009 RMK A01 T00111059  RH  060%=      5-min Rain = 0
KPVS 230644Z 34002KT 01/M06 A3009 RMK A01 T00091058  RH  061%=      5-min Rain = 0
KPVS 230645Z 34002KT 01/M06 A3009 RMK A01 T00081058  RH  061%=      5-min Rain = 0
KPVS 230646Z 34002KT 01/M06 A3009 RMK A01 T00081059  RH  061%=      5-min Rain = 0
KPVS 230647Z 34002KT 01/M06 A3009 RMK A01 T00071058  RH  062%=      5-min Rain = 0
KPVS 230648Z 33002KT 01/M06 A3009 RMK A01 T00061057  RH  063%=      5-min Rain = 0
KPVS 230649Z 32002KT 01/M06 A3009 RMK A01 T00051056  RH  063%=      5-min Rain = 0
KPVS 230650Z 32002KT 01/M06 A3009 RMK A01 T00051056  RH  064%=      5-min Rain = 0
KPVS 230651Z 32003KT 01/M06 A3009 RMK A01 T00051056  RH  063%=      5-min Rain = 0
KPVS 230652Z 32003KT 00/M06 A3009 RMK A01 T00041056  RH  064%=      5-min Rain = 0
KPVS 230653Z 32003KT 00/M06 A3009 RMK A01 T00041056  RH  064%=      5-min Rain = 0
KPVS 230654Z 32002KT 00/M06 A3009 RMK A01 T00041058  RH  063%=      5-min Rain = 0
KPVS 230655Z 32002KT 01/M06 A3009 RMK A01 T00051059  RH  062%=      5-min Rain = 0
KPVS 230656Z 32002KT 01/M06 A3009 RMK A01 T00081059  RH  061%=      5-min Rain = 0
KPVS 230657Z 32002KT 01/M06 A3009 RMK A01 T00091059  RH  060%=      5-min Rain = 0
KPVS 230658Z 32001KT 01/M06 A3009 RMK A01 T00111058  RH  060%=      5-min Rain = 0
KPVS 230659Z 32002KT 01/M06 A3009 RMK A01 T00121058  RH  059%=      5-min Rain = 0
KPVS 230700Z 32002KT 01/M06 A3009 RMK A01 T00131058  RH  059%=      5-min Rain = 0
KPVS 230701Z 32002KT 01/M06 A3009 RMK A01 T00131058  RH  059%=      5-min Rain = 0
KPVS 230702Z 32002KT 01/M06 A3009 RMK A01 T00141056  RH  060%=      5-min Rain = 0
KPVS 230703Z 32002KT 01/M05 A3009 RMK A01 T00141054  RH  060%=      5-min Rain = 0
KPVS 230704Z 32002KT 01/M05 A3009 RMK A01 T00131054  RH  061%=      5-min Rain = 0
KPVS 230705Z 33003KT 01/M05 A3009 RMK A01 T00131052  RH  062%=      5-min Rain = 0
KPVS 230706Z 33003KT 01/M05 A3009 RMK A01 T00121052  RH  062%=      5-min Rain = 0
KPVS 230707Z 34003KT 01/M05 A3009 RMK A01 T00121052  RH  062%=      5-min Rain = 0
KPVS 230708Z 34004KT 01/M06 A3008 RMK A01 T00111055  RH  061%=      5-min Rain = 0
KPVS 230709Z 34004KT 01/M06 A3008 RMK A01 T00111057  RH  060%=      5-min Rain = 0
KPVS 230710Z 34004KT 01/M06 A3008 RMK A01 T00111056  RH  061%=      5-min Rain = 0
KPVS 230711Z 34004KT 01/M06 A3008 RMK A01 T00091058  RH  061%=      5-min Rain = 0
KPVS 230712Z 34004KT 01/M06 A3008 RMK A01 T00061059  RH  062%=      5-min Rain = 0
KPVS 230713Z 34004KT 00/M06 A3008 RMK A01 T00031059  RH  063%=      5-min Rain = 0
KPVS 230714Z 34004KT 00/M06 A3008 RMK A01 T00011059  RH  064%=      5-min Rain = 0
KPVS 230715Z 34004KT 00/06 A3008 RMK A01 T00000-60  RH  064%=      5-min Rain = 0
KPVS 230716Z 34004KT M00/M06 A3008 RMK A01 T10011060  RH  064%=      5-min Rain = 0
KPVS 230717Z 34004KT M00/M06 A3008 RMK A01 T10011060  RH  064%=      5-min Rain = 0
KPVS 230718Z 34003KT M00/M06 A3008 RMK A01 T10011060  RH  065%=      5-min Rain = 0
KPVS 230719Z 34003KT M00/M06 A3008 RMK A01 T10011060  RH  065%=      5-min Rain = 0
KPVS 230720Z 34003KT M00/M06 A3008 RMK A01 T10011059  RH  065%=      5-min Rain = 0
KPVS 230721Z 34003KT 00/M06 A3008 RMK A01 T00011058  RH  064%=      5-min Rain = 0
KPVS 230722Z 34002KT 00/M06 A3008 RMK A01 T00041057  RH  064%=      5-min Rain = 0
KPVS 230723Z 34002KT 01/M06 A3008 RMK A01 T00061056  RH  063%=      5-min Rain = 0
KPVS 230724Z 35002KT 01/M06 A3008 RMK A01 T00091056  RH  062%=      5-min Rain = 0
KPVS 230725Z 35002KT 01/M06 A3008 RMK A01 T00121056  RH  061%=      5-min Rain = 0
KPVS 230726Z 35002KT 01/M06 A3008 RMK A01 T00131056  RH  060%=      5-min Rain = 0
KPVS 230727Z 34001KT 01/M06 A3008 RMK A01 T00141056  RH  060%=      5-min Rain = 0
KPVS 230728Z 33001KT 01/M06 A3008 RMK A01 T00141056  RH  060%=      5-min Rain = 0
KPVS 230729Z 33001KT 01/M06 A3008 RMK A01 T00131056  RH  060%=      5-min Rain = 0
KPVS 230730Z 33000KT 01/M06 A3008 RMK A01 T00131056  RH  060%=      5-min Rain = 0
KPVS 230731Z 00000KT 01/M06 A3008 RMK A01 T00121056  RH  060%=      5-min Rain = 0
KPVS 230732Z 28000KT 01/M06 A3008 RMK A01 T00121055  RH  061%=      5-min Rain = 0
KPVS 230733Z 23001KT 01/M06 A3008 RMK A01 T00111056  RH  061%=      5-min Rain = 0
KPVS 230734Z 23001KT 01/M06 A3008 RMK A01 T00121057  RH  060%=      5-min Rain = 0
KPVS 230735Z 23001KT 02/M06 A3008 RMK A01 T00151057  RH  059%=      5-min Rain = 0
KPVS 230736Z 23003KT 02/M06 A3008 RMK A01 T00171057  RH  058%=      5-min Rain = 0
KPVS 230737Z 23003KT 02/M06 A3008 RMK A01 T00171057  RH  058%=      5-min Rain = 0
KPVS 230738Z 22003KT 02/M06 A3008 RMK A01 T00161056  RH  059%=      5-min Rain = 0
KPVS 230739Z 22004KT 01/M06 A3008 RMK A01 T00131056  RH  060%=      5-min Rain = 0
KPVS 230740Z 22003KT 01/M06 A3008 RMK A01 T00111056  RH  061%=      5-min Rain = 0
KPVS 230741Z 22003KT 01/M06 A3009 RMK A01 T00111056  RH  061%=      5-min Rain = 0
KPVS 230742Z 22003KT 01/M06 A3009 RMK A01 T00101057  RH  061%=      5-min Rain = 0
KPVS 230743Z 22005KT 01/M06 A3009 RMK A01 T00081058  RH  061%=      5-min Rain = 0
KPVS 230744Z 22005KT 01/M06 A3009 RMK A01 T00071059  RH  061%=      5-min Rain = 0
KPVS 230745Z 22004KT 01/M06 A3009 RMK A01 T00061059  RH  062%=      5-min Rain = 0
KPVS 230746Z 23004KT 01/M06 A3009 RMK A01 T00061059  RH  062%=      5-min Rain = 0
KPVS 230747Z 24003KT 00/M06 A3009 RMK A01 T00041059  RH  063%=      5-min Rain = 0
KPVS 230748Z 25003KT 00/M06 A3009 RMK A01 T00021060  RH  063%=      5-min Rain = 0
KPVS 230749Z 25003KT 00/06 A3009 RMK A01 T00000-60  RH  064%=      5-min Rain = 0
KPVS 230750Z 25003KT M00/M06 A3009 RMK A01 T10011060  RH  065%=      5-min Rain = 0
KPVS 230751Z 24003KT M00/M06 A3009 RMK A01 T10031060  RH  065%=      5-min Rain = 0
KPVS 230752Z 23002KT M00/M06 A3009 RMK A01 T10041060  RH  066%=      5-min Rain = 0
KPVS 230753Z 23003KT M01/M06 A3009 RMK A01 T10051059  RH  067%=      5-min Rain = 0
KPVS 230754Z 22003KT M01/M06 A3009 RMK A01 T10061059  RH  067%=      5-min Rain = 0
KPVS 230755Z 21002KT M01/M06 A3009 RMK A01 T10061058  RH  068%=      5-min Rain = 0
KPVS 230756Z 21002KT M01/M06 A3009 RMK A01 T10061058  RH  068%=      5-min Rain = 0
KPVS 230757Z 23002KT M01/M06 A3009 RMK A01 T10061058  RH  068%=      5-min Rain = 0
KPVS 230758Z 23003KT M01/M06 A3009 RMK A01 T10071058  RH  068%=      5-min Rain = 0
KPVS 230759Z 23003KT M01/M06 A3009 RMK A01 T10071059  RH  068%=      5-min Rain = 0
KPVS 230800Z 24003KT M01/M06 A3009 RMK A01 T10071059  RH  068%=      5-min Rain = 0
KPVS 230801Z 25003KT M01/M06 A3009 RMK A01 T10071059  RH  068%=      5-min Rain = 0
KPVS 230802Z 25002KT M01/M06 A3009 RMK A01 T10071059  RH  068%=      5-min Rain = 0
KPVS 230803Z 25002KT M01/M06 A3009 RMK A01 T10071059  RH  068%=      5-min Rain = 0
KPVS 230804Z 25002KT M01/M06 A3009 RMK A01 T10081059  RH  068%=      5-min Rain = 0
KPVS 230805Z 25002KT M01/M06 A3009 RMK A01 T10081059  RH  068%=      5-min Rain = 0
KPVS 230806Z 24002KT M01/M06 A3009 RMK A01 T10091059  RH  069%=      5-min Rain = 0
KPVS 230807Z 23002KT M01/M06 A3009 RMK A01 T10091059  RH  069%=      5-min Rain = 0
KPVS 230808Z 23002KT M01/M06 A3009 RMK A01 T10091059  RH  069%=      5-min Rain = 0
KPVS 230809Z 23002KT M01/M06 A3009 RMK A01 T10101059  RH  069%=      5-min Rain = 0
KPVS 230810Z 23001KT M01/M06 A3009 RMK A01 T10101059  RH  070%=      5-min Rain = 0
KPVS 230811Z 24001KT M01/M06 A3009 RMK A01 T10111059  RH  070%=      5-min Rain = 0
KPVS 230812Z 27002KT M01/M06 A3009 RMK A01 T10111060  RH  070%=      5-min Rain = 0
KPVS 230813Z 29002KT M01/M06 A3009 RMK A01 T10121059  RH  070%=      5-min Rain = 0
KPVS 230814Z 30003KT M01/M06 A3009 RMK A01 T10121059  RH  071%=      5-min Rain = 0
KPVS 230815Z 31003KT M01/M06 A3008 RMK A01 T10121059  RH  071%=      5-min Rain = 0
KPVS 230816Z 32003KT M01/M06 A3008 RMK A01 T10121059  RH  070%=      5-min Rain = 0
KPVS 230817Z 32003KT M01/M06 A3008 RMK A01 T10111059  RH  070%=      5-min Rain = 0
KPVS 230818Z 32003KT M01/M06 A3008 RMK A01 T10101059  RH  070%=      5-min Rain = 0
KPVS 230819Z 32003KT M01/M06 A3008 RMK A01 T10101058  RH  069%=      5-min Rain = 0
KPVS 230820Z 32003KT M01/M06 A3008 RMK A01 T10091058  RH  069%=      5-min Rain = 0
KPVS 230821Z 32003KT M01/M06 A3008 RMK A01 T10081058  RH  069%=      5-min Rain = 0
KPVS 230822Z 32003KT M01/M06 A3008 RMK A01 T10071058  RH  068%=      5-min Rain = 0
KPVS 230823Z 33004KT M01/M06 A3008 RMK A01 T10061058  RH  068%=      5-min Rain = 0
KPVS 230824Z 33004KT M01/M06 A3008 RMK A01 T10061058  RH  068%=      5-min Rain = 0
KPVS 230825Z 33004KT M01/M06 A3008 RMK A01 T10051058  RH  067%=      5-min Rain = 0
KPVS 230826Z 33004KT M01/M06 A3008 RMK A01 T10051058  RH  067%=      5-min Rain = 0
KPVS 230827Z 33003KT M01/M06 A3008 RMK A01 T10061059  RH  067%=      5-min Rain = 0
KPVS 230828Z 33003KT M01/M06 A3008 RMK A01 T10071059  RH  068%=      5-min Rain = 0
KPVS 230829Z 33003KT M01/M06 A3008 RMK A01 T10081060  RH  068%=      5-min Rain = 0
KPVS 230830Z 32003KT M01/M06 A3008 RMK A01 T10091059  RH  069%=      5-min Rain = 0
KPVS 230831Z 32003KT M01/M06 A3008 RMK A01 T10091059  RH  069%=      5-min Rain = 0
KPVS 230832Z 31002KT M01/M06 A3008 RMK A01 T10091058  RH  069%=      5-min Rain = 0
KPVS 230833Z 29002KT M01/M06 A3008 RMK A01 T10101059  RH  069%=      5-min Rain = 0
KPVS 230834Z 28003KT M01/M06 A3008 RMK A01 T10111060  RH  069%=      5-min Rain = 0
KPVS 230835Z 28002KT M01/M06 A3008 RMK A01 T10121060  RH  070%=      5-min Rain = 0
KPVS 230836Z 28002KT M01/M06 A3008 RMK A01 T10111059  RH  070%=      5-min Rain = 0
KPVS 230837Z 28002KT M01/M06 A3008 RMK A01 T10101059  RH  069%=      5-min Rain = 0
KPVS 230838Z 28002KT M01/M06 A3008 RMK A01 T10091059  RH  069%=      5-min Rain = 0
KPVS 230839Z 28002KT M01/M06 A3008 RMK A01 T10081059  RH  068%=      5-min Rain = 0
KPVS 230840Z 28002KT M01/M06 A3008 RMK A01 T10061059  RH  067%=      5-min Rain = 0
KPVS 230841Z 28002KT M01/M06 A3008 RMK A01 T10051059  RH  067%=      5-min Rain = 0
KPVS 230842Z 27002KT M01/M06 A3008 RMK A01 T10051058  RH  067%=      5-min Rain = 0
KPVS 230843Z 27002KT M01/M06 A3008 RMK A01 T10051058  RH  068%=      5-min Rain = 0
KPVS 230844Z 25002KT M01/M06 A3008 RMK A01 T10061058  RH  068%=      5-min Rain = 0
KPVS 230845Z 25002KT M01/M06 A3008 RMK A01 T10071058  RH  068%=      5-min Rain = 0
KPVS 230846Z 25002KT M01/M06 A3008 RMK A01 T10071058  RH  068%=      5-min Rain = 0
KPVS 230847Z 25002KT M01/M06 A3008 RMK A01 T10071058  RH  068%=      5-min Rain = 0
KPVS 230848Z 25003KT M01/M06 A3007 RMK A01 T10071058  RH  068%=      5-min Rain = 0
KPVS 230849Z 26003KT M01/M06 A3007 RMK A01 T10071059  RH  068%=      5-min Rain = 0
KPVS 230850Z 26002KT M01/M06 A3007 RMK A01 T10071059  RH  068%=      5-min Rain = 0
KPVS 230851Z 26003KT M01/M06 A3007 RMK A01 T10071060  RH  068%=      5-min Rain = 0
KPVS 230852Z 26003KT M01/M06 A3007 RMK A01 T10071060  RH  068%=      5-min Rain = 0
KPVS 230853Z 26003KT M01/M06 A3007 RMK A01 T10081060  RH  068%=      5-min Rain = 0
KPVS 230854Z 26002KT M01/M06 A3007 RMK A01 T10081059  RH  068%=      5-min Rain = 0
KPVS 230855Z 26002KT M01/M06 A3007 RMK A01 T10091058  RH  069%=      5-min Rain = 0
KPVS 230856Z 27002KT M01/M06 A3007 RMK A01 T10091057  RH  070%=      5-min Rain = 0
KPVS 230857Z 28002KT M01/M06 A3007 RMK A01 T10091057  RH  070%=      5-min Rain = 0
KPVS 230858Z 28002KT M01/M06 A3007 RMK A01 T10091058  RH  070%=      5-min Rain = 0
KPVS 230859Z 29002KT M01/M06 A3007 RMK A01 T10101058  RH  070%=      5-min Rain = 0
KPVS 230900Z 29002KT M01/M06 A3007 RMK A01 T10101057  RH  070%=      5-min Rain = 0
KPVS 230901Z 30002KT M01/M06 A3007 RMK A01 T10101057  RH  070%=      5-min Rain = 0
KPVS 230902Z 30002KT M01/M06 A3007 RMK A01 T10101058  RH  070%=      5-min Rain = 0
KPVS 230903Z 30002KT M01/M06 A3007 RMK A01 T10101058  RH  070%=      5-min Rain = 0
KPVS 230904Z 31002KT M01/M06 A3007 RMK A01 T10111059  RH  070%=      5-min Rain = 0
KPVS 230905Z 31002KT M01/M06 A3007 RMK A01 T10111058  RH  070%=      5-min Rain = 0
KPVS 230906Z 31002KT M01/M06 A3007 RMK A01 T10101059  RH  070%=      5-min Rain = 0
KPVS 230907Z 31002KT M01/M06 A3007 RMK A01 T10101059  RH  070%=      5-min Rain = 0
KPVS 230908Z 31001KT M01/M06 A3007 RMK A01 T10101059  RH  070%=      5-min Rain = 0
KPVS 230909Z 31001KT M01/M06 A3007 RMK A01 T10101059  RH  069%=      5-min Rain = 0
KPVS 230910Z 31001KT M01/M06 A3007 RMK A01 T10101059  RH  069%=      5-min Rain = 0
KPVS 230911Z 31001KT M01/M06 A3007 RMK A01 T10101059  RH  069%=      5-min Rain = 0
KPVS 230912Z 32002KT M01/M06 A3006 RMK A01 T10101059  RH  069%=      5-min Rain = 0
KPVS 230913Z 33002KT M01/M06 A3006 RMK A01 T10101059  RH  069%=      5-min Rain = 0
KPVS 230914Z 33002KT M01/M06 A3006 RMK A01 T10101059  RH  069%=      5-min Rain = 0
KPVS 230915Z 33002KT M01/M06 A3006 RMK A01 T10101058  RH  070%=      5-min Rain = 0
KPVS 230916Z 33002KT M01/M06 A3006 RMK A01 T10111057  RH  071%=      5-min Rain = 0
KPVS 230917Z 33002KT M01/M06 A3006 RMK A01 T10111058  RH  070%=      5-min Rain = 0
KPVS 230918Z 33002KT M01/M06 A3006 RMK A01 T10111059  RH  070%=      5-min Rain = 0
KPVS 230919Z 32002KT M01/M06 A3006 RMK A01 T10111059  RH  070%=      5-min Rain = 0
KPVS 230920Z 32002KT M01/M06 A3006 RMK A01 T10111059  RH  070%=      5-min Rain = 0
KPVS 230921Z 32002KT M01/M06 A3006 RMK A01 T10111058  RH  070%=      5-min Rain = 0
KPVS 230922Z 32001KT M01/M06 A3006 RMK A01 T10111058  RH  070%=      5-min Rain = 0
KPVS 230923Z 32001KT M01/M06 A3006 RMK A01 T10111058  RH  070%=      5-min Rain = 0
KPVS 230924Z 32001KT M01/M06 A3006 RMK A01 T10111058  RH  070%=      5-min Rain = 0
KPVS 230925Z 32001KT M01/M06 A3006 RMK A01 T10101058  RH  070%=      5-min Rain = 0
KPVS 230926Z 28000KT M01/M06 A3006 RMK A01 T10101058  RH  070%=      5-min Rain = 0
KPVS 230927Z 27001KT M01/M06 A3006 RMK A01 T10091058  RH  070%=      5-min Rain = 0
KPVS 230928Z 27001KT M01/M06 A3006 RMK A01 T10091059  RH  069%=      5-min Rain = 0
KPVS 230929Z 25001KT M01/M06 A3006 RMK A01 T10081059  RH  069%=      5-min Rain = 0
KPVS 230930Z 25001KT M01/M06 A3006 RMK A01 T10081059  RH  068%=      5-min Rain = 0
KPVS 230931Z 25001KT M01/M06 A3006 RMK A01 T10081060  RH  068%=      5-min Rain = 0
KPVS 230932Z 25002KT M01/M06 A3006 RMK A01 T10081060  RH  068%=      5-min Rain = 0
KPVS 230933Z 25001KT M01/M06 A3006 RMK A01 T10081061  RH  068%=      5-min Rain = 0
KPVS 230934Z 25001KT M01/M06 A3006 RMK A01 T10081061  RH  067%=      5-min Rain = 0
KPVS 230935Z 25002KT M01/M06 A3006 RMK A01 T10081060  RH  068%=      5-min Rain = 0
KPVS 230936Z 25002KT M01/M06 A3006 RMK A01 T10081060  RH  068%=      5-min Rain = 0
KPVS 230937Z 25003KT M01/M06 A3006 RMK A01 T10101060  RH  069%=      5-min Rain = 0
KPVS 230938Z 26003KT M01/M06 A3006 RMK A01 T10121060  RH  069%=      5-min Rain = 0
KPVS 230939Z 26003KT M01/M06 A3006 RMK A01 T10141061  RH  070%=      5-min Rain = 0
KPVS 230940Z 27002KT M02/M06 A3006 RMK A01 T10151061  RH  071%=      5-min Rain = 0
KPVS 230941Z 27002KT M02/M06 A3006 RMK A01 T10161061  RH  071%=      5-min Rain = 0
KPVS 230942Z 27002KT M02/M06 A3006 RMK A01 T10171061  RH  072%=      5-min Rain = 0
KPVS 230943Z 27002KT M02/M06 A3006 RMK A01 T10181062  RH  072%=      5-min Rain = 0
KPVS 230944Z 27002KT M02/M06 A3006 RMK A01 T10191062  RH  072%=      5-min Rain = 0
KPVS 230945Z 27002KT M02/M06 A3006 RMK A01 T10191061  RH  073%=      5-min Rain = 0
KPVS 230946Z 27002KT M02/M06 A3006 RMK A01 T10191061  RH  073%=      5-min Rain = 0
KPVS 230947Z 28002KT M02/M06 A3006 RMK A01 T10191061  RH  073%=      5-min Rain = 0
KPVS 230948Z 28002KT M02/M06 A3006 RMK A01 T10201061  RH  073%=      5-min Rain = 0
KPVS 230949Z 28002KT M02/M06 A3006 RMK A01 T10201061  RH  073%=      5-min Rain = 0
KPVS 230950Z 28002KT M02/M06 A3006 RMK A01 T10211062  RH  073%=      5-min Rain = 0
KPVS 230951Z 28002KT M02/M06 A3006 RMK A01 T10211061  RH  074%=      5-min Rain = 0
KPVS 230952Z 28002KT M02/M06 A3006 RMK A01 T10211062  RH  074%=      5-min Rain = 0
KPVS 230953Z 28002KT M02/M06 A3006 RMK A01 T10221063  RH  074%=      5-min Rain = 0
KPVS 230954Z 29003KT M02/M06 A3005 RMK A01 T10231063  RH  074%=      5-min Rain = 0
KPVS 230955Z 29003KT M02/M06 A3005 RMK A01 T10231063  RH  074%=      5-min Rain = 0
KPVS 230956Z 29003KT M02/M06 A3005 RMK A01 T10231064  RH  074%=      5-min Rain = 0
KPVS 230957Z 29002KT M02/M06 A3005 RMK A01 T10241064  RH  074%=      5-min Rain = 0
KPVS 230958Z 30002KT M03/M06 A3005 RMK A01 T10251063  RH  075%=      5-min Rain = 0
KPVS 230959Z 32002KT M02/M06 A3005 RMK A01 T10241062  RH  075%=      5-min Rain = 0
KPVS 231000Z 32002KT M02/M06 A3005 RMK A01 T10221061  RH  074%=      5-min Rain = 0
KPVS 231001Z 33002KT M02/M06 A3005 RMK A01 T10211062  RH  074%=      5-min Rain = 0
KPVS 231002Z 33002KT M02/M06 A3005 RMK A01 T10201062  RH  073%=      5-min Rain = 0
KPVS 231003Z 33002KT M02/M06 A3005 RMK A01 T10191061  RH  073%=      5-min Rain = 0
KPVS 231004Z 32002KT M02/M06 A3005 RMK A01 T10181061  RH  072%=      5-min Rain = 0
KPVS 231005Z 31002KT M02/M06 A3005 RMK A01 T10171061  RH  072%=      5-min Rain = 0
KPVS 231006Z 30002KT M02/M06 A3005 RMK A01 T10161060  RH  072%=      5-min Rain = 0
KPVS 231007Z 30002KT M02/M06 A3005 RMK A01 T10161060  RH  072%=      5-min Rain = 0
KPVS 231008Z 30002KT M02/M06 A3005 RMK A01 T10161059  RH  072%=      5-min Rain = 0
KPVS 231009Z 30002KT M02/M06 A3005 RMK A01 T10161058  RH  073%=      5-min Rain = 0
KPVS 231010Z 30002KT M02/M06 A3005 RMK A01 T10161059  RH  072%=      5-min Rain = 0
KPVS 231011Z 29002KT M02/M06 A3005 RMK A01 T10161060  RH  072%=      5-min Rain = 0
KPVS 231012Z 29002KT M02/M06 A3005 RMK A01 T10161059  RH  072%=      5-min Rain = 0
KPVS 231013Z 28002KT M02/M06 A3005 RMK A01 T10161059  RH  072%=      5-min Rain = 0
KPVS 231014Z 28002KT M02/M06 A3005 RMK A01 T10161060  RH  072%=      5-min Rain = 0
KPVS 231015Z 27002KT M02/M06 A3005 RMK A01 T10151060  RH  072%=      5-min Rain = 0
KPVS 231016Z 27002KT M02/M06 A3005 RMK A01 T10151060  RH  071%=      5-min Rain = 0
KPVS 231017Z 27002KT M02/M06 A3005 RMK A01 T10151060  RH  071%=      5-min Rain = 0
KPVS 231018Z 27002KT M02/M06 A3005 RMK A01 T10151060  RH  071%=      5-min Rain = 0
KPVS 231019Z 26002KT M01/M06 A3005 RMK A01 T10141060  RH  071%=      5-min Rain = 0
KPVS 231020Z 26002KT M01/M06 A3005 RMK A01 T10141060  RH  071%=      5-min Rain = 0
KPVS 231021Z 26001KT M02/M06 A3005 RMK A01 T10151060  RH  071%=      5-min Rain = 0
KPVS 231022Z 26002KT M02/M06 A3005 RMK A01 T10151060  RH  071%=      5-min Rain = 0
KPVS 231023Z 26002KT M02/M06 A3005 RMK A01 T10151060  RH  071%=      5-min Rain = 0
KPVS 231024Z 26002KT M01/M06 A3005 RMK A01 T10141060  RH  071%=      5-min Rain = 0
KPVS 231025Z 26002KT M01/M06 A3005 RMK A01 T10141060  RH  071%=      5-min Rain = 0
KPVS 231026Z 27002KT M01/M06 A3005 RMK A01 T10141060  RH  071%=      5-min Rain = 0
KPVS 231027Z 27002KT M01/M06 A3005 RMK A01 T10141060  RH  071%=      5-min Rain = 0
KPVS 231028Z 27002KT M01/M06 A3005 RMK A01 T10141059  RH  071%=      5-min Rain = 0
KPVS 231029Z 27002KT M02/M06 A3005 RMK A01 T10151059  RH  072%=      5-min Rain = 0
KPVS 231030Z 27002KT M02/M06 A3005 RMK A01 T10151059  RH  072%=      5-min Rain = 0
KPVS 231031Z 27001KT M02/M06 A3005 RMK A01 T10151059  RH  072%=      5-min Rain = 0
KPVS 231032Z 27002KT M02/M06 A3005 RMK A01 T10151059  RH  072%=      5-min Rain = 0
KPVS 231033Z 28002KT M02/M06 A3005 RMK A01 T10161060  RH  072%=      5-min Rain = 0
KPVS 231034Z 28002KT M02/M06 A3005 RMK A01 T10171061  RH  072%=      5-min Rain = 0
KPVS 231035Z 28002KT M02/M06 A3005 RMK A01 T10181062  RH  072%=      5-min Rain = 0
KPVS 231036Z 28002KT M02/M06 A3005 RMK A01 T10191062  RH  072%=      5-min Rain = 0
KPVS 231037Z 28002KT M02/M06 A3005 RMK A01 T10211063  RH  073%=      5-min Rain = 0
KPVS 231038Z 29003KT M02/M06 A3005 RMK A01 T10221064  RH  073%=      5-min Rain = 0
KPVS 231039Z 29003KT M02/M07 A3005 RMK A01 T10241065  RH  074%=      5-min Rain = 0
KPVS 231040Z 30003KT M03/M07 A3005 RMK A01 T10261065  RH  075%=      5-min Rain = 0
KPVS 231041Z 30002KT M03/M06 A3005 RMK A01 T10271064  RH  075%=      5-min Rain = 0
KPVS 231042Z 31002KT M03/M06 A3005 RMK A01 T10271063  RH  076%=      5-min Rain = 0
KPVS 231043Z 32003KT M03/M06 A3005 RMK A01 T10271062  RH  076%=      5-min Rain = 0
KPVS 231044Z 32003KT M03/M06 A3005 RMK A01 T10261062  RH  076%=      5-min Rain = 0
KPVS 231045Z 32003KT M03/M06 A3005 RMK A01 T10261062  RH  076%=      5-min Rain = 0
KPVS 231046Z 32003KT M03/M06 A3005 RMK A01 T10251062  RH  076%=      5-min Rain = 0
KPVS 231047Z 33003KT M02/M06 A3005 RMK A01 T10241062  RH  075%=      5-min Rain = 0
KPVS 231048Z 33003KT M02/M06 A3005 RMK A01 T10241062  RH  075%=      5-min Rain = 0
KPVS 231049Z 33003KT M02/M06 A3005 RMK A01 T10231061  RH  075%=      5-min Rain = 0
KPVS 231050Z 33004KT M02/M06 A3005 RMK A01 T10221061  RH  074%=      5-min Rain = 0
KPVS 231051Z 34003KT M02/M06 A3005 RMK A01 T10211062  RH  074%=      5-min Rain = 0
KPVS 231052Z 34003KT M02/M06 A3005 RMK A01 T10201061  RH  074%=      5-min Rain = 0
KPVS 231053Z 34003KT M02/M06 A3005 RMK A01 T10191061  RH  074%=      5-min Rain = 0
KPVS 231054Z 34003KT M02/M06 A3005 RMK A01 T10181060  RH  073%=      5-min Rain = 0
KPVS 231055Z 34003KT M02/M06 A3005 RMK A01 T10171061  RH  072%=      5-min Rain = 0
KPVS 231056Z 34003KT M02/M06 A3005 RMK A01 T10161061  RH  072%=      5-min Rain = 0
KPVS 231057Z 34003KT M02/M06 A3005 RMK A01 T10161061  RH  071%=      5-min Rain = 0
KPVS 231058Z 34003KT M02/M06 A3005 RMK A01 T10151061  RH  071%=      5-min Rain = 0
KPVS 231059Z 34003KT M02/M06 A3005 RMK A01 T10151061  RH  071%=      5-min Rain = 0
KPVS 231100Z 34003KT M01/M06 A3005 RMK A01 T10141061  RH  070%=      5-min Rain = 0
KPVS 231101Z 34003KT M01/M06 A3005 RMK A01 T10141061  RH  070%=      5-min Rain = 0
KPVS 231102Z 34003KT M01/M06 A3005 RMK A01 T10141061  RH  070%=      5-min Rain = 0
KPVS 231103Z 34004KT M01/M06 A3005 RMK A01 T10131060  RH  070%=      5-min Rain = 0
KPVS 231104Z 34004KT M01/M06 A3005 RMK A01 T10121060  RH  070%=      5-min Rain = 0
KPVS 231105Z 33004KT M01/M06 A3005 RMK A01 T10111060  RH  069%=      5-min Rain = 0
KPVS 231106Z 33004KT M01/M06 A3005 RMK A01 T10111060  RH  069%=      5-min Rain = 0
KPVS 231107Z 33004KT M01/M06 A3005 RMK A01 T10111061  RH  069%=      5-min Rain = 0
KPVS 231108Z 32004KT M01/M06 A3005 RMK A01 T10111060  RH  069%=      5-min Rain = 0
KPVS 231109Z 32004KT M01/M06 A3005 RMK A01 T10111061  RH  069%=      5-min Rain = 0
KPVS 231110Z 32004KT M01/M06 A3005 RMK A01 T10111061  RH  069%=      5-min Rain = 0
KPVS 231111Z 32003KT M01/M06 A3005 RMK A01 T10111060  RH  069%=      5-min Rain = 0
KPVS 231112Z 32003KT M01/M06 A3005 RMK A01 T10111060  RH  069%=      5-min Rain = 0
KPVS 231113Z 32003KT M01/M06 A3005 RMK A01 T10101060  RH  069%=      5-min Rain = 0
KPVS 231114Z 32003KT M01/M06 A3005 RMK A01 T10091060  RH  069%=      5-min Rain = 0
KPVS 231115Z 32003KT M01/M06 A3004 RMK A01 T10081060  RH  068%=      5-min Rain = 0
KPVS 231116Z 32003KT M01/M06 A3004 RMK A01 T10071060  RH  068%=      5-min Rain = 0
KPVS 231117Z 32003KT M01/M06 A3004 RMK A01 T10071060  RH  067%=      5-min Rain = 0
KPVS 231118Z 32003KT M01/M06 A3004 RMK A01 T10061060  RH  067%=      5-min Rain = 0
KPVS 231119Z 32003KT M01/M06 A3004 RMK A01 T10061060  RH  067%=      5-min Rain = 0
KPVS 231120Z 32003KT M01/M06 A3004 RMK A01 T10051060  RH  067%=      5-min Rain = 0
KPVS 231121Z 32003KT M01/M06 A3004 RMK A01 T10051059  RH  067%=      5-min Rain = 0
KPVS 231122Z 32003KT M00/M06 A3004 RMK A01 T10041059  RH  066%=      5-min Rain = 0
KPVS 231123Z 32003KT M00/M06 A3004 RMK A01 T10041060  RH  066%=      5-min Rain = 0
KPVS 231124Z 32003KT M00/M06 A3004 RMK A01 T10031059  RH  066%=      5-min Rain = 0
KPVS 231125Z 32003KT M00/M06 A3004 RMK A01 T10031060  RH  066%=      5-min Rain = 0
KPVS 231126Z 32003KT M00/M06 A3004 RMK A01 T10031060  RH  066%=      5-min Rain = 0
KPVS 231127Z 32003KT M00/M06 A3004 RMK A01 T10031060  RH  066%=      5-min Rain = 0
KPVS 231128Z 32003KT M00/M06 A3004 RMK A01 T10031060  RH  066%=      5-min Rain = 0
KPVS 231129Z 33003KT M00/M06 A3004 RMK A01 T10031060  RH  065%=      5-min Rain = 0
KPVS 231130Z 34003KT M00/M06 A3004 RMK A01 T10021060  RH  065%=      5-min Rain = 0
KPVS 231131Z 34003KT M00/M06 A3004 RMK A01 T10011060  RH  065%=      5-min Rain = 0
KPVS 231132Z 34003KT 00/06 A3004 RMK A01 T00000-60  RH  064%=      5-min Rain = 0
KPVS 231133Z 34004KT 00/M06 A3004 RMK A01 T00021059  RH  064%=      5-min Rain = 0
KPVS 231134Z 34003KT 00/M06 A3004 RMK A01 T00021060  RH  063%=      5-min Rain = 0
KPVS 231135Z 34003KT 00/M06 A3004 RMK A01 T00021060  RH  063%=      5-min Rain = 0
KPVS 231136Z 34003KT 00/M06 A3004 RMK A01 T00011060  RH  064%=      5-min Rain = 0
KPVS 231137Z 34003KT 00/06 A3004 RMK A01 T00-00-60  RH  064%=      5-min Rain = 0
KPVS 231138Z 34003KT M00/M06 A3004 RMK A01 T10011060  RH  065%=      5-min Rain = 0
KPVS 231139Z 34003KT M00/M06 A3004 RMK A01 T10021060  RH  065%=      5-min Rain = 0
KPVS 231140Z 33002KT M00/M06 A3004 RMK A01 T10031060  RH  065%=      5-min Rain = 0
KPVS 231141Z 32002KT M00/M06 A3004 RMK A01 T10031060  RH  066%=      5-min Rain = 0
KPVS 231142Z 31002KT M00/M06 A3004 RMK A01 T10031059  RH  066%=      5-min Rain = 0
KPVS 231143Z 30003KT M00/M06 A3004 RMK A01 T10031059  RH  066%=      5-min Rain = 0
KPVS 231144Z 30003KT M00/M06 A3004 RMK A01 T10031059  RH  066%=      5-min Rain = 0
KPVS 231145Z 30003KT M00/M06 A3004 RMK A01 T10031060  RH  065%=      5-min Rain = 0
KPVS 231146Z 29002KT M00/M06 A3004 RMK A01 T10031060  RH  065%=      5-min Rain = 0
KPVS 231147Z 28002KT M00/M06 A3004 RMK A01 T10021060  RH  065%=      5-min Rain = 0
KPVS 231148Z 29002KT M00/M06 A3004 RMK A01 T10011060  RH  064%=      5-min Rain = 0
KPVS 231149Z 29002KT 00/06 A3004 RMK A01 T00-00-60  RH  064%=      5-min Rain = 0
KPVS 231150Z 29002KT 00/06 A3004 RMK A01 T00000-60  RH  064%=      5-min Rain = 0
KPVS 231151Z 28003KT 00/06 A3004 RMK A01 T00000-60  RH  064%=      5-min Rain = 0
KPVS 231152Z 28002KT 00/06 A3004 RMK A01 T00-00-59  RH  064%=      5-min Rain = 0
KPVS 231153Z 27002KT M00/M06 A3004 RMK A01 T10011059  RH  065%=      5-min Rain = 0
KPVS 231154Z 27002KT M00/M06 A3004 RMK A01 T10021059  RH  065%=      5-min Rain = 0
KPVS 231155Z 27002KT M00/M06 A3004 RMK A01 T10031059  RH  066%=      5-min Rain = 0
KPVS 231156Z 25002KT M00/M06 A3004 RMK A01 T10031060  RH  066%=      5-min Rain = 0
KPVS 231157Z 25002KT M00/M06 A3004 RMK A01 T10031060  RH  066%=      5-min Rain = 0
KPVS 231158Z 25002KT M00/M06 A3004 RMK A01 T10041060  RH  066%=      5-min Rain = 0
KPVS 231159Z 25002KT M01/M06 A3004 RMK A01 T10051060  RH  067%=      5-min Rain = 0
KPVS 231200Z 25002KT M01/M06 A3004 RMK A01 T10061059  RH  067%=      5-min Rain = 0
KPVS 231201Z 27001KT M01/M06 A3004 RMK A01 T10071059  RH  068%=      5-min Rain = 0
KPVS 231202Z 27001KT M01/M06 A3004 RMK A01 T10081060  RH  068%=      5-min Rain = 0
KPVS 231203Z 27001KT M01/M06 A3004 RMK A01 T10091060  RH  068%=      5-min Rain = 0
KPVS 231204Z 27001KT M01/M06 A3004 RMK A01 T10101060  RH  069%=      5-min Rain = 0
KPVS 231205Z 27001KT M01/M06 A3004 RMK A01 T10111060  RH  069%=      5-min Rain = 0
KPVS 231206Z 27001KT M01/M06 A3004 RMK A01 T10121060  RH  070%=      5-min Rain = 0
KPVS 231207Z 28001KT M01/M06 A3004 RMK A01 T10131060  RH  070%=      5-min Rain = 0
KPVS 231208Z 28001KT M01/M06 A3004 RMK A01 T10141062  RH  070%=      5-min Rain = 0
KPVS 231209Z 28001KT M02/M06 A3004 RMK A01 T10161064  RH  070%=      5-min Rain = 0
KPVS 231210Z 28001KT M02/M07 A3004 RMK A01 T10191065  RH  071%=      5-min Rain = 0
KPVS 231211Z 28001KT M02/M07 A3004 RMK A01 T10231066  RH  072%=      5-min Rain = 0
KPVS 231212Z 27001KT M03/M07 A3004 RMK A01 T10251065  RH  074%=      5-min Rain = 0
KPVS 231213Z 27001KT M03/M06 A3004 RMK A01 T10251064  RH  075%=      5-min Rain = 0
KPVS 231214Z 26002KT M03/M06 A3004 RMK A01 T10251062  RH  076%=      5-min Rain = 0
KPVS 231215Z 24002KT M03/M06 A3004 RMK A01 T10251062  RH  076%=      5-min Rain = 0
KPVS 231216Z 24002KT M02/M06 A3004 RMK A01 T10241061  RH  076%=      5-min Rain = 0
KPVS 231217Z 24002KT M02/M06 A3004 RMK A01 T10241061  RH  076%=      5-min Rain = 0
KPVS 231218Z 24002KT M02/M06 A3004 RMK A01 T10231061  RH  075%=      5-min Rain = 0
KPVS 231219Z 24002KT M02/M06 A3004 RMK A01 T10231062  RH  074%=      5-min Rain = 0
KPVS 231220Z 24001KT M02/M06 A3004 RMK A01 T10221063  RH  074%=      5-min Rain = 0
KPVS 231221Z 26001KT M02/M06 A3004 RMK A01 T10231062  RH  074%=      5-min Rain = 0
KPVS 231222Z 27001KT M02/M06 A3004 RMK A01 T10221062  RH  075%=      5-min Rain = 0
KPVS 231223Z 27001KT M02/M06 A3004 RMK A01 T10231061  RH  075%=      5-min Rain = 0
KPVS 231224Z 28001KT M02/M06 A3004 RMK A01 T10231062  RH  075%=      5-min Rain = 0
KPVS 231225Z 29002KT M02/M06 A3004 RMK A01 T10231062  RH  075%=      5-min Rain = 0
KPVS 231226Z 29002KT M02/M06 A3004 RMK A01 T10231062  RH  075%=      5-min Rain = 0
KPVS 231227Z 29002KT M02/M06 A3004 RMK A01 T10231062  RH  075%=      5-min Rain = 0
KPVS 231228Z 28002KT M02/M06 A3004 RMK A01 T10231062  RH  075%=      5-min Rain = 0
KPVS 231229Z 28002KT M02/M06 A3004 RMK A01 T10241063  RH  075%=      5-min Rain = 0
KPVS 231230Z 28002KT M03/M06 A3004 RMK A01 T10261064  RH  075%=      5-min Rain = 0
KPVS 231231Z 28001KT M03/M07 A3004 RMK A01 T10271065  RH  075%=      5-min Rain = 0
KPVS 231232Z 28002KT M03/M06 A3004 RMK A01 T10271064  RH  076%=      5-min Rain = 0
KPVS 231233Z 28001KT M03/M06 A3004 RMK A01 T10271064  RH  076%=      5-min Rain = 0
KPVS 231234Z 28001KT M03/M06 A3004 RMK A01 T10271064  RH  076%=      5-min Rain = 0
KPVS 231235Z 28001KT M03/M06 A3004 RMK A01 T10271064  RH  076%=      5-min Rain = 0
KPVS 231236Z 28001KT M03/M06 A3004 RMK A01 T10271064  RH  076%=      5-min Rain = 0
KPVS 231237Z 28001KT M03/M06 A3004 RMK A01 T10271064  RH  076%=      5-min Rain = 0
KPVS 231238Z 28001KT M03/M06 A3004 RMK A01 T10271064  RH  076%=      5-min Rain = 0
KPVS 231239Z 28001KT M03/M06 A3004 RMK A01 T10271064  RH  076%=      5-min Rain = 0
KPVS 231240Z 28002KT M03/M06 A3004 RMK A01 T10281064  RH  076%=      5-min Rain = 0
KPVS 231241Z 28002KT M03/M07 A3003 RMK A01 T10281065  RH  076%=      5-min Rain = 0
KPVS 231242Z 28002KT M03/M07 A3003 RMK A01 T10281065  RH  076%=      5-min Rain = 0
KPVS 231243Z 28002KT M03/M07 A3003 RMK A01 T10281065  RH  076%=      5-min Rain = 0
KPVS 231244Z 28002KT M03/M07 A3003 RMK A01 T10291065  RH  076%=      5-min Rain = 0
KPVS 231245Z 28002KT M03/M07 A3003 RMK A01 T10291065  RH  076%=      5-min Rain = 0
KPVS 231246Z 28002KT M03/M06 A3003 RMK A01 T10291064  RH  077%=      5-min Rain = 0
KPVS 231247Z 28002KT M03/M06 A3003 RMK A01 T10281063  RH  077%=      5-min Rain = 0
KPVS 231248Z 28002KT M03/M06 A3003 RMK A01 T10271064  RH  076%=      5-min Rain = 0
KPVS 231249Z 27002KT M03/M06 A3003 RMK A01 T10271064  RH  076%=      5-min Rain = 0
KPVS 231250Z 26003KT M03/M06 A3004 RMK A01 T10261062  RH  076%=      5-min Rain = 0
KPVS 231251Z 25003KT M03/M06 A3004 RMK A01 T10251062  RH  076%=      5-min Rain = 0
KPVS 231252Z 25003KT M02/M06 A3004 RMK A01 T10241063  RH  075%=      5-min Rain = 0
KPVS 231253Z 25004KT M02/M06 A3004 RMK A01 T10241063  RH  075%=      5-min Rain = 0
KPVS 231254Z 25003KT M02/M06 A3004 RMK A01 T10231063  RH  074%=      5-min Rain = 0
KPVS 231255Z 25004KT M02/M06 A3003 RMK A01 T10231064  RH  074%=      5-min Rain = 0
KPVS 231256Z 26003KT M02/M06 A3003 RMK A01 T10231063  RH  074%=      5-min Rain = 0
KPVS 231257Z 26003KT M02/M06 A3003 RMK A01 T10231063  RH  074%=      5-min Rain = 0
KPVS 231258Z 26003KT M02/M06 A3003 RMK A01 T10221063  RH  073%=      5-min Rain = 0
KPVS 231259Z 26003KT M02/M06 A3003 RMK A01 T10221064  RH  073%=      5-min Rain = 0
KPVS 231300Z 26003KT M02/M06 A3003 RMK A01 T10211063  RH  073%=      5-min Rain = 0
KPVS 231301Z 26003KT M02/M06 A3003 RMK A01 T10211063  RH  073%=      5-min Rain = 0
KPVS 231302Z 27003KT M02/M06 A3003 RMK A01 T10211063  RH  073%=      5-min Rain = 0
KPVS 231303Z 27003KT M02/M06 A3003 RMK A01 T10211062  RH  073%=      5-min Rain = 0
KPVS 231304Z 27002KT M02/M06 A3003 RMK A01 T10211062  RH  073%=      5-min Rain = 0
KPVS 231305Z 28003KT M02/M06 A3003 RMK A01 T10211062  RH  073%=      5-min Rain = 0
KPVS 231306Z 28003KT M02/M06 A3003 RMK A01 T10211062  RH  073%=      5-min Rain = 0
KPVS 231307Z 28003KT M02/M06 A3003 RMK A01 T10211063  RH  073%=      5-min Rain = 0
KPVS 231308Z 27003KT M02/M06 A3003 RMK A01 T10201062  RH  073%=      5-min Rain = 0
KPVS 231309Z 27003KT M02/M06 A3003 RMK A01 T10211062  RH  073%=      5-min Rain = 0
KPVS 231310Z 26002KT M02/M06 A3003 RMK A01 T10211062  RH  074%=      5-min Rain = 0
KPVS 231311Z 25002KT M02/M06 A3003 RMK A01 T10221062  RH  074%=      5-min Rain = 0
KPVS 231312Z 25002KT M02/M06 A3003 RMK A01 T10231063  RH  074%=      5-min Rain = 0
KPVS 231313Z 25002KT M02/M06 A3003 RMK A01 T10241063  RH  074%=      5-min Rain = 0
KPVS 231314Z 25003KT M02/M06 A3003 RMK A01 T10241063  RH  075%=      5-min Rain = 0
KPVS 231315Z 26003KT M03/M06 A3003 RMK A01 T10251064  RH  075%=      5-min Rain = 0
KPVS 231316Z 26002KT M03/M06 A3003 RMK A01 T10261064  RH  075%=      5-min Rain = 0
KPVS 231317Z 26003KT M03/M06 A3003 RMK A01 T10271064  RH  076%=      5-min Rain = 0
KPVS 231318Z 26003KT M03/M07 A3003 RMK A01 T10281065  RH  076%=      5-min Rain = 0
KPVS 231319Z 27002KT M03/M06 A3003 RMK A01 T10281064  RH  076%=      5-min Rain = 0
KPVS 231320Z 27003KT M03/M06 A3003 RMK A01 T10281064  RH  076%=      5-min Rain = 0
KPVS 231321Z 27003KT M03/M06 A3003 RMK A01 T10281064  RH  076%=      5-min Rain = 0
KPVS 231322Z 27003KT M03/M06 A3003 RMK A01 T10291064  RH  077%=      5-min Rain = 0
KPVS 231323Z 27003KT M03/M06 A3003 RMK A01 T10301064  RH  077%=      5-min Rain = 0
KPVS 231324Z 27003KT M03/M06 A3003 RMK A01 T10311064  RH  078%=      5-min Rain = 0
KPVS 231325Z 27003KT M03/M06 A3003 RMK A01 T10311064  RH  078%=      5-min Rain = 0
KPVS 231326Z 27003KT M03/M06 A3003 RMK A01 T10321064  RH  078%=      5-min Rain = 0
KPVS 231327Z 27003KT M03/M06 A3003 RMK A01 T10321064  RH  078%=      5-min Rain = 0
KPVS 231328Z 27003KT M03/M06 A3003 RMK A01 T10311064  RH  078%=      5-min Rain = 0
KPVS 231329Z 27003KT M03/M06 A3003 RMK A01 T10301064  RH  078%=      5-min Rain = 0
KPVS 231330Z 27003KT M03/M06 A3003 RMK A01 T10301064  RH  077%=      5-min Rain = 0
KPVS 231331Z 26003KT M03/M06 A3003 RMK A01 T10301064  RH  077%=      5-min Rain = 0
KPVS 231332Z 27003KT M03/M07 A3003 RMK A01 T10301065  RH  077%=      5-min Rain = 0
KPVS 231333Z 27003KT M03/M06 A3002 RMK A01 T10301064  RH  077%=      5-min Rain = 0
KPVS 231334Z 27003KT M03/M07 A3002 RMK A01 T10301065  RH  077%=      5-min Rain = 0
KPVS 231335Z 27003KT M03/M06 A3002 RMK A01 T10301064  RH  077%=      5-min Rain = 0
KPVS 231336Z 27003KT M03/M06 A3002 RMK A01 T10291062  RH  078%=      5-min Rain = 0
KPVS 231337Z 26003KT M03/M06 A3002 RMK A01 T10281061  RH  078%=      5-min Rain = 0
KPVS 231338Z 26003KT M03/M06 A3003 RMK A01 T10261061  RH  077%=      5-min Rain = 0
KPVS 231339Z 26003KT M03/M06 A3003 RMK A01 T10251061  RH  076%=      5-min Rain = 0
KPVS 231340Z 26004KT M02/M06 A3003 RMK A01 T10241062  RH  075%=      5-min Rain = 0
KPVS 231341Z 25004KT M02/M06 A3003 RMK A01 T10231062  RH  075%=      5-min Rain = 0
KPVS 231342Z 25004KT M02/M06 A3003 RMK A01 T10211062  RH  074%=      5-min Rain = 0
KPVS 231343Z 25004KT M02/M06 A3003 RMK A01 T10211062  RH  073%=      5-min Rain = 0
KPVS 231344Z 26004KT M02/M06 A3003 RMK A01 T10201062  RH  073%=      5-min Rain = 0
KPVS 231345Z 25004KT M02/M06 A3002 RMK A01 T10201062  RH  073%=      5-min Rain = 0
KPVS 231346Z 26003KT M02/M06 A3002 RMK A01 T10191062  RH  072%=      5-min Rain = 0
KPVS 231347Z 25003KT M02/M06 A3002 RMK A01 T10191062  RH  072%=      5-min Rain = 0
KPVS 231348Z 26003KT M02/M06 A3002 RMK A01 T10191062  RH  072%=      5-min Rain = 0
KPVS 231349Z 26003KT M02/M06 A3002 RMK A01 T10181062  RH  072%=      5-min Rain = 0
KPVS 231350Z 27003KT M02/M06 A3002 RMK A01 T10171061  RH  072%=      5-min Rain = 0
KPVS 231351Z 27003KT M02/M06 A3002 RMK A01 T10161061  RH  071%=      5-min Rain = 0
KPVS 231352Z 27003KT M02/M06 A3002 RMK A01 T10151061  RH  071%=      5-min Rain = 0
KPVS 231353Z 27003KT M02/M06 A3002 RMK A01 T10151061  RH  071%=      5-min Rain = 0
KPVS 231354Z 27003KT M01/M06 A3002 RMK A01 T10141060  RH  071%=      5-min Rain = 0
KPVS 231355Z 27003KT M01/M06 A3002 RMK A01 T10131059  RH  071%=      5-min Rain = 0
KPVS 231356Z 27003KT M01/M06 A3002 RMK A01 T10131059  RH  071%=      5-min Rain = 0
KPVS 231357Z 27003KT M01/M06 A3002 RMK A01 T10121059  RH  070%=      5-min Rain = 0
KPVS 231358Z 27002KT M01/M06 A3002 RMK A01 T10111059  RH  070%=      5-min Rain = 0
KPVS 231359Z 27003KT M01/M06 A3002 RMK A01 T10101059  RH  070%=      5-min Rain = 0
KPVS 231400Z 27003KT M01/M06 A3002 RMK A01 T10101058  RH  070%=      5-min Rain = 0
KPVS 231401Z 27003KT M01/M06 A3002 RMK A01 T10091058  RH  069%=      5-min Rain = 0
KPVS 231402Z 27003KT M01/M06 A3002 RMK A01 T10081057  RH  069%=      5-min Rain = 0
KPVS 231403Z 27003KT M01/M06 A3002 RMK A01 T10071057  RH  069%=      5-min Rain = 0
KPVS 231404Z 27002KT M01/M06 A3002 RMK A01 T10061056  RH  069%=      5-min Rain = 0
KPVS 231405Z 27002KT M00/M06 A3002 RMK A01 T10041055  RH  069%=      5-min Rain = 0
KPVS 231406Z 27002KT M00/M06 A3002 RMK A01 T10031055  RH  068%=      5-min Rain = 0
KPVS 231407Z 27002KT M00/M06 A3002 RMK A01 T10021055  RH  068%=      5-min Rain = 0
KPVS 231408Z 27002KT M00/M06 A3002 RMK A01 T10021055  RH  067%=      5-min Rain = 0
KPVS 231409Z 27002KT M00/M06 A3002 RMK A01 T10011055  RH  067%=      5-min Rain = 0
KPVS 231410Z 27002KT 00/06 A3002 RMK A01 T00-00-55  RH  066%=      5-min Rain = 0
KPVS 231411Z 27002KT 00/M06 A3002 RMK A01 T00011055  RH  066%=      5-min Rain = 0
KPVS 231412Z 27002KT 00/M05 A3002 RMK A01 T00021054  RH  066%=      5-min Rain = 0
KPVS 231413Z 27002KT 00/M05 A3002 RMK A01 T00031053  RH  066%=      5-min Rain = 0
KPVS 231414Z 26002KT 00/M05 A3002 RMK A01 T00041052  RH  066%=      5-min Rain = 0
KPVS 231415Z 27002KT 01/M05 A3002 RMK A01 T00051053  RH  065%=      5-min Rain = 0
KPVS 231416Z 27002KT 01/M05 A3002 RMK A01 T00061052  RH  065%=      5-min Rain = 0
KPVS 231417Z 26002KT 01/M05 A3002 RMK A01 T00061051  RH  065%=      5-min Rain = 0
KPVS 231418Z 26002KT 01/M05 A3002 RMK A01 T00071051  RH  065%=      5-min Rain = 0
KPVS 231419Z 26002KT 01/M05 A3002 RMK A01 T00091050  RH  065%=      5-min Rain = 0
KPVS 231420Z 26002KT 01/M05 A3002 RMK A01 T00101050  RH  064%=      5-min Rain = 0
KPVS 231421Z 27002KT 01/M05 A3002 RMK A01 T00111050  RH  064%=      5-min Rain = 0
KPVS 231422Z 27002KT 01/M05 A3002 RMK A01 T00121050  RH  064%=      5-min Rain = 0
KPVS 231423Z 27002KT 01/M05 A3002 RMK A01 T00131049  RH  064%=      5-min Rain = 0
KPVS 231424Z 27003KT 01/M05 A3002 RMK A01 T00141046  RH  064%=      5-min Rain = 0
KPVS 231425Z 28003KT 02/M05 A3002 RMK A01 T00151045  RH  064%=      5-min Rain = 0
KPVS 231426Z 27003KT 02/M05 A3002 RMK A01 T00161048  RH  062%=      5-min Rain = 0
KPVS 231427Z 28003KT 02/M05 A3002 RMK A01 T00181047  RH  062%=      5-min Rain = 0
KPVS 231428Z 27003KT 02/M05 A3002 RMK A01 T00191047  RH  061%=      5-min Rain = 0
KPVS 231429Z 27003KT 02/M05 A3002 RMK A01 T00201046  RH  062%=      5-min Rain = 0
KPVS 231430Z 28004KT 02/M05 A3002 RMK A01 T00211045  RH  061%=      5-min Rain = 0
KPVS 231431Z 27003KT 02/M05 A3002 RMK A01 T00231046  RH  060%=      5-min Rain = 0
KPVS 231432Z 27003KT 02/M05 A3002 RMK A01 T00241045  RH  060%=      5-min Rain = 0
KPVS 231433Z 28003KT 03/M04 A3002 RMK A01 T00251044  RH  060%=      5-min Rain = 0
KPVS 231434Z 28004KT 03/M04 A3002 RMK A01 T00261044  RH  060%=      5-min Rain = 0
KPVS 231435Z 27004KT 03/M05 A3002 RMK A01 T00281045  RH  058%=      5-min Rain = 0
KPVS 231436Z 28004KT 03/M05 A3002 RMK A01 T00291045  RH  058%=      5-min Rain = 0
KPVS 231437Z 28004KT 03/M04 A3002 RMK A01 T00311044  RH  058%=      5-min Rain = 0
KPVS 231438Z 28004KT 03/M05 A3002 RMK A01 T00331045  RH  057%=      5-min Rain = 0
KPVS 231439Z 28005KT 04/M05 A3002 RMK A01 T00351047  RH  055%=      5-min Rain = 0
KPVS 231440Z 27004KT 04/M05 A3002 RMK A01 T00361049  RH  054%=      5-min Rain = 0
KPVS 231441Z 27004KT 04/M05 A3002 RMK A01 T00381051  RH  052%=      5-min Rain = 0
KPVS 231442Z 28005KT 04/M05 A3002 RMK A01 T00381049  RH  053%=      5-min Rain = 0
KPVS 231443Z 27005KT 04/M05 A3002 RMK A01 T00391049  RH  053%=      5-min Rain = 0
KPVS 231444Z 27004KT 04/M05 A3002 RMK A01 T00401046  RH  053%=      5-min Rain = 0
KPVS 231445Z 27004KT 04/M05 A3002 RMK A01 T00411047  RH  053%=      5-min Rain = 0
KPVS 231446Z 27004KT 04/M05 A3002 RMK A01 T00421047  RH  052%=      5-min Rain = 0
KPVS 231447Z 27004KT 04/M05 A3002 RMK A01 T00421051  RH  051%=      5-min Rain = 0
KPVS 231448Z 27004KT 04/M05 A3002 RMK A01 T00421050  RH  051%=      5-min Rain = 0
KPVS 231449Z 27003KT 04/M05 A3002 RMK A01 T00431048  RH  052%=      5-min Rain = 0
KPVS 231450Z 27004KT 04/M05 A3002 RMK A01 T00431045  RH  053%=      5-min Rain = 0
KPVS 231451Z 27003KT 04/M05 A3002 RMK A01 T00441045  RH  052%=      5-min Rain = 0
KPVS 231452Z 27003KT 05/M04 A3002 RMK A01 T00451044  RH  052%=      5-min Rain = 0
KPVS 231453Z 27004KT 05/M04 A3002 RMK A01 T00461044  RH  052%=      5-min Rain = 0
KPVS 231454Z 27004KT 05/M05 A3002 RMK A01 T00471045  RH  051%=      5-min Rain = 0
KPVS 231455Z 27004KT 05/M04 A3002 RMK A01 T00481042  RH  052%=      5-min Rain = 0
KPVS 231456Z 27004KT 05/M04 A3002 RMK A01 T00491044  RH  051%=      5-min Rain = 0
KPVS 231457Z 27004KT 05/M04 A3002 RMK A01 T00491041  RH  052%=      5-min Rain = 0
KPVS 231458Z 27003KT 05/M04 A3002 RMK A01 T00511039  RH  052%=      5-min Rain = 0
KPVS 231459Z 26003KT 05/M04 A3002 RMK A01 T00521040  RH  052%=      5-min Rain = 0
KPVS 231500Z 27003KT 05/M04 A3002 RMK A01 T00531038  RH  052%=      5-min Rain = 0
KPVS 231501Z 26003KT 05/M04 A3002 RMK A01 T00541039  RH  051%=      5-min Rain = 0
KPVS 231502Z 26003KT 06/M04 A3002 RMK A01 T00551038  RH  051%=      5-min Rain = 0
KPVS 231503Z 27004KT 06/M04 A3002 RMK A01 T00561040  RH  050%=      5-min Rain = 0
KPVS 231504Z 27003KT 06/M04 A3002 RMK A01 T00571040  RH  050%=      5-min Rain = 0
KPVS 231505Z 28004KT 06/M04 A3002 RMK A01 T00581038  RH  050%=      5-min Rain = 0
KPVS 231506Z 28004KT 06/M04 A3002 RMK A01 T00601038  RH  049%=      5-min Rain = 0
KPVS 231507Z 28005KT 06/M04 A3002 RMK A01 T00601041  RH  048%=      5-min Rain = 0
KPVS 231508Z 28004KT 06/M04 A3002 RMK A01 T00611042  RH  048%=      5-min Rain = 0
KPVS 231509Z 28004KT 06/M04 A3002 RMK A01 T00611041  RH  048%=      5-min Rain = 0
KPVS 231510Z 27003KT 06/M04 A3002 RMK A01 T00621040  RH  048%=      5-min Rain = 0
KPVS 231511Z 27003KT 06/M04 A3002 RMK A01 T00631039  RH  048%=      5-min Rain = 0
KPVS 231512Z 28004KT 06/M04 A3002 RMK A01 T00641042  RH  047%=      5-min Rain = 0
KPVS 231513Z 27003KT 07/M04 A3002 RMK A01 T00651040  RH  047%=      5-min Rain = 0
KPVS 231514Z 27003KT 07/M04 A3002 RMK A01 T00661039  RH  047%=      5-min Rain = 0
KPVS 231515Z 28004KT 07/M04 A3002 RMK A01 T00671039  RH  047%=      5-min Rain = 0
KPVS 231516Z 27003KT 07/M04 A3002 RMK A01 T00681038  RH  047%=      5-min Rain = 0
KPVS 231517Z 27003KT 07/M04 A3002 RMK A01 T00691036  RH  047%=      5-min Rain = 0
KPVS 231518Z 26003KT 07/M04 A3002 RMK A01 T00711035  RH  047%=      5-min Rain = 0
KPVS 231519Z 26004KT 07/M04 A3002 RMK A01 T00731039  RH  045%=      5-min Rain = 0
KPVS 231520Z 26004KT 07/M04 A3002 RMK A01 T00741039  RH  045%=      5-min Rain = 0
KPVS 231521Z 26003KT 07/M04 A3002 RMK A01 T00741039  RH  044%=      5-min Rain = 0
KPVS 231522Z 26004KT 08/M04 A3002 RMK A01 T00751036  RH  045%=      5-min Rain = 0
KPVS 231523Z 26003KT 08/M04 A3002 RMK A01 T00771035  RH  045%=      5-min Rain = 0
KPVS 231524Z 27005KT 08/M03 A3002 RMK A01 T00781034  RH  045%=      5-min Rain = 0
KPVS 231525Z 27005KT 08/M04 A3002 RMK A01 T00781040  RH  043%=      5-min Rain = 0
KPVS 231526Z 26003KT 08/M04 A3002 RMK A01 T00771040  RH  043%=      5-min Rain = 0
KPVS 231527Z 26003KT 08/M04 A3002 RMK A01 T00781036  RH  045%=      5-min Rain = 0
KPVS 231528Z 25003KT 08/M03 A3002 RMK A01 T00791034  RH  045%=      5-min Rain = 0
KPVS 231529Z 26003KT 08/M03 A3002 RMK A01 T00811034  RH  044%=      5-min Rain = 0
KPVS 231530Z 24002KT 08/M03 A3002 RMK A01 T00821032  RH  044%=      5-min Rain = 0
KPVS 231531Z 23003KT 08/M03 A3002 RMK A01 T00831031  RH  044%=      5-min Rain = 0
KPVS 231532Z 23005KT 09/M04 A3002 RMK A01 T00851035  RH  043%=      5-min Rain = 0
KPVS 231533Z 24005KT 09/M04 A3002 RMK A01 T00861039  RH  041%=      5-min Rain = 0
KPVS 231534Z 24005KT 09/M04 A3002 RMK A01 T00871041  RH  040%=      5-min Rain = 0
KPVS 231535Z 25005KT 09/M04 A3002 RMK A01 T00871043  RH  040%=      5-min Rain = 0
KPVS 231536Z 25004KT 09/M04 A3002 RMK A01 T00881042  RH  040%=      5-min Rain = 0
KPVS 231537Z 25004KT 09/M04 A3001 RMK A01 T00881041  RH  040%=      5-min Rain = 0
KPVS 231538Z 26004KT 09/M04 A3001 RMK A01 T00901037  RH  040%=      5-min Rain = 0
KPVS 231539Z 23004KT 09/M04 A3001 RMK A01 T00921035  RH  041%=      5-min Rain = 0
KPVS 231540Z 23005KT 10/M04 A3001 RMK A01 T00951038  RH  039%=      5-min Rain = 0
KPVS 231541Z 23005KT 10/M04 A3001 RMK A01 T00971038  RH  039%=      5-min Rain = 0
KPVS 231542Z 23006KT 10/M05 A3001 RMK A01 T00981046  RH  036%=      5-min Rain = 0
KPVS 231543Z 23005KT 10/M05 A3001 RMK A01 T00981046  RH  036%=      5-min Rain = 0
KPVS 231544Z 23006KT 10/M04 A3001 RMK A01 T01001043  RH  036%=      5-min Rain = 0
KPVS 231545Z 23007KT 10/M04 A3001 RMK A01 T01011044  RH  036%=      5-min Rain = 0
KPVS 231546Z 23006KT 10/M05 A3001 RMK A01 T01011048  RH  035%=      5-min Rain = 0
KPVS 231547Z 24007KT 10/M05 A3001 RMK A01 T01021047  RH  035%=      5-min Rain = 0
KPVS 231548Z 24005KT 10/M05 A3001 RMK A01 T01031047  RH  035%=      5-min Rain = 0
KPVS 231549Z 24005KT 10/M04 A3001 RMK A01 T01041043  RH  035%=      5-min Rain = 0
KPVS 231550Z 23005KT 11/M05 A3001 RMK A01 T01061046  RH  034%=      5-min Rain = 0
KPVS 231551Z 22005KT 11/M05 A3001 RMK A01 T01061045  RH  034%=      5-min Rain = 0
KPVS 231552Z 22006KT 11/M05 A3001 RMK A01 T01071045  RH  034%=      5-min Rain = 0
KPVS 231553Z 22007KT 11/M05 A3001 RMK A01 T01091049  RH  032%=      5-min Rain = 0
KPVS 231554Z 22007KT 11/M05 A3001 RMK A01 T01101049  RH  032%=      5-min Rain = 0
KPVS 231555Z 22007KT 11/M05 A3001 RMK A01 T01111051  RH  032%=      5-min Rain = 0
KPVS 231556Z 22008KT 11/M05 A3001 RMK A01 T01121053  RH  031%=      5-min Rain = 0
KPVS 231557Z 22007KT 11/M05 A3001 RMK A01 T01121053  RH  031%=      5-min Rain = 0
KPVS 231558Z 22005KT 11/M05 A3001 RMK A01 T01131051  RH  031%=      5-min Rain = 0
KPVS 231559Z 21007KT 11/M05 A3001 RMK A01 T01141050  RH  031%=      5-min Rain = 0
KPVS 231600Z 21007KT 12/M05 A3001 RMK A01 T01151052  RH  031%=      5-min Rain = 0
KPVS 231601Z 21007KT 12/M05 A3001 RMK A01 T01161051  RH  030%=      5-min Rain = 0
KPVS 231602Z 21009KT 12/M05 A3001 RMK A01 T01191052  RH  030%=      5-min Rain = 0
KPVS 231603Z 21008KT 12/M06 A3001 RMK A01 T01201057  RH  029%=      5-min Rain = 0
KPVS 231604Z 21009KT 12/M06 A3001 RMK A01 T01201057  RH  029%=      5-min Rain = 0
KPVS 231605Z 21008KT 12/M06 A3001 RMK A01 T01201057  RH  029%=      5-min Rain = 0
KPVS 231606Z 21007KT 12/M06 A30 RMK A01 T01201057  RH  029%=      5-min Rain = 0
KPVS 231607Z 22008KT 12/M06 A30 RMK A01 T01201058  RH  028%=      5-min Rain = 0
KPVS 231608Z 22009KT 12/M06 A30 RMK A01 T01191058  RH  029%=      5-min Rain = 0
KPVS 231609Z 21008KT 12/M05 A30 RMK A01 T01201054  RH  029%=      5-min Rain = 0
KPVS 231610Z 21007KT 12/M06 A30 RMK A01 T01201055  RH  029%=      5-min Rain = 0
KPVS 231611Z 21008KT 12/M05 A30 RMK A01 T01201052  RH  030%=      5-min Rain = 0
KPVS 231612Z 20009KT 12/M06 A30 RMK A01 T01221057  RH  028%=      5-min Rain = 0
KPVS 231613Z 20008KT 12/M06 A30 RMK A01 T01241056  RH  028%=      5-min Rain = 0
KPVS 231614Z 20010KT 13/M05 A30 RMK A01 T01261053  RH  028%=      5-min Rain = 0
KPVS 231615Z 21008KT 13/M05 A30 RMK A01 T01261052  RH  028%=      5-min Rain = 0
KPVS 231616Z 20009KT 13/M06 A30 RMK A01 T01271055  RH  028%=      5-min Rain = 0
KPVS 231617Z 20006KT 13/M05 A30 RMK A01 T01271054  RH  028%=      5-min Rain = 0
KPVS 231618Z 20007KT 13/M05 A30 RMK A01 T01281050  RH  029%=      5-min Rain = 0
KPVS 231619Z 20007KT 13/M05 A30 RMK A01 T01311051  RH  028%=      5-min Rain = 0
KPVS 231620Z 20008KT 13/M05 A30 RMK A01 T01321054  RH  027%=      5-min Rain = 0
KPVS 231621Z 20010KT 13/M06 A30 RMK A01 T01321055  RH  027%=      5-min Rain = 0
KPVS 231622Z 21009KT 13/M05 A30 RMK A01 T01321051  RH  027%=      5-min Rain = 0
KPVS 231623Z 21010KT 13/M06 A30 RMK A01 T01331057  RH  026%=      5-min Rain = 0
KPVS 231624Z 21010KT 13/M06 A30 RMK A01 T01321056  RH  027%=      5-min Rain = 0
KPVS 231625Z 20009KT 13/M06 A30 RMK A01 T01321056  RH  027%=      5-min Rain = 0
KPVS 231626Z 21009KT 13/M06 A30 RMK A01 T01341055  RH  026%=      5-min Rain = 0
KPVS 231627Z 21009KT 14/M06 A30 RMK A01 T01361057  RH  026%=      5-min Rain = 0
KPVS 231628Z 21010KT 14/M06 A30 RMK A01 T01371058  RH  025%=      5-min Rain = 0
KPVS 231629Z 21010KT 14/M06 A30 RMK A01 T01371059  RH  025%=      5-min Rain = 0
KPVS 231630Z 19007KT 14/M06 A30 RMK A01 T01381058  RH  025%=      5-min Rain = 0
KPVS 231631Z 20009KT 14/M06 A30 RMK A01 T01391058  RH  025%=      5-min Rain = 0
KPVS 231632Z 21011KT 14/M06 A30 RMK A01 T01401060  RH  024%=      5-min Rain = 0
KPVS 231633Z 20009KT 14/M06 A30 RMK A01 T01381062  RH  024%=      5-min Rain = 0
KPVS 231634Z 20009KT 14/M06 A30 RMK A01 T01381060  RH  025%=      5-min Rain = 0
KPVS 231635Z 20010KT 14/M06 A30 RMK A01 T01391059  RH  025%=      5-min Rain = 0
KPVS 231636Z 21011KT 14/M06 A30 RMK A01 T01411057  RH  025%=      5-min Rain = 0
KPVS 231637Z 21009KT 14/M06 A2999 RMK A01 T01421060  RH  024%=      5-min Rain = 0
KPVS 231638Z 20008KT 14/M06 A2999 RMK A01 T01411061  RH  024%=      5-min Rain = 0
KPVS 231639Z 20008KT 14/M05 A2999 RMK A01 T01421054  RH  025%=      5-min Rain = 0
KPVS 231640Z 21011KT 15/M06 A2999 RMK A01 T01451056  RH  024%=      5-min Rain = 0
KPVS 231641Z 20011KT 14/M06 A2999 RMK A01 T01441061  RH  024%=      5-min Rain = 0
KPVS 231642Z 20009KT 14/M06 A2999 RMK A01 T01431058  RH  024%=      5-min Rain = 0
KPVS 231643Z 19009KT 14/M06 A2999 RMK A01 T01441058  RH  024%=      5-min Rain = 0
KPVS 231644Z 20011G16KT 15/M06 A2999 RMK A01 T01461057  RH  024%=      5-min Rain = 0
KPVS 231645Z 20009KT 15/M06 A2999 RMK A01 T01461057  RH  024%=      5-min Rain = 0
KPVS 231646Z 20009KT 15/M06 A2999 RMK A01 T01451056  RH  024%=      5-min Rain = 0
KPVS 231647Z 20011KT 15/M06 A2998 RMK A01 T01461055  RH  024%=      5-min Rain = 0
KPVS 231648Z 18011KT 15/M06 A2998 RMK A01 T01471060  RH  023%=      5-min Rain = 0
KPVS 231649Z 19013KT 15/M06 A2998 RMK A01 T01491062  RH  023%=      5-min Rain = 0
KPVS 231650Z 19011KT 15/M07 A2998 RMK A01 T01491066  RH  022%=      5-min Rain = 0
KPVS 231651Z 19013KT 15/M06 A2998 RMK A01 T01501064  RH  022%=      5-min Rain = 0
KPVS 231652Z 19013KT 15/M07 A2998 RMK A01 T01501066  RH  022%=      5-min Rain = 0
KPVS 231653Z 19014KT 15/M07 A2998 RMK A01 T01501066  RH  022%=      5-min Rain = 0
KPVS 231654Z 19011KT 15/M07 A2998 RMK A01 T01501065  RH  022%=      5-min Rain = 0
KPVS 231655Z 20011G16KT 15/M06 A2998 RMK A01 T01521061  RH  023%=      5-min Rain = 0
KPVS 231656Z 20013KT 15/M06 A2998 RMK A01 T01521062  RH  022%=      5-min Rain = 0
KPVS 231657Z 19013KT 15/M06 A2998 RMK A01 T01531064  RH  022%=      5-min Rain = 0
KPVS 231658Z 20012G17KT 15/M07 A2998 RMK A01 T01531065  RH  022%=      5-min Rain = 0
KPVS 231659Z 19013KT 15/M07 A2998 RMK A01 T01541065  RH  021%=      5-min Rain = 0
KPVS 231700Z 20012KT 15/M07 A2998 RMK A01 T01541066  RH  021%=      5-min Rain = 0
KPVS 231701Z 20012KT 16/M06 A2998 RMK A01 T01551062  RH  022%=      5-min Rain = 0
KPVS 231702Z 19012G18KT 16/M07 A2998 RMK A01 T01571065  RH  021%=      5-min Rain = 0
KPVS 231703Z 19010KT 16/M06 A2998 RMK A01 T01571064  RH  021%=      5-min Rain = 0
KPVS 231704Z 20012KT 16/M06 A2998 RMK A01 T01581063  RH  021%=      5-min Rain = 0
KPVS 231705Z 19011G17KT 16/M06 A2998 RMK A01 T01591062  RH  021%=      5-min Rain = 0
KPVS 231706Z 19013KT 16/M07 A2998 RMK A01 T01601067  RH  020%=      5-min Rain = 0
KPVS 231707Z 19013KT 16/M07 A2997 RMK A01 T01591067  RH  021%=      5-min Rain = 0
KPVS 231708Z 18013KT 16/M07 A2997 RMK A01 T01581066  RH  021%=      5-min Rain = 0
KPVS 231709Z 19013G18KT 16/M06 A2997 RMK A01 T01581064  RH  021%=      5-min Rain = 0
KPVS 231710Z 19012KT 16/M07 A2998 RMK A01 T01581065  RH  021%=      5-min Rain = 0
KPVS 231711Z 21016KT 16/M06 A2997 RMK A01 T01591063  RH  021%=      5-min Rain = 0
KPVS 231712Z 21013KT 16/M07 A2997 RMK A01 T01601068  RH  020%=      5-min Rain = 0
KPVS 231713Z 21013KT 16/M07 A2998 RMK A01 T01591065  RH  021%=      5-min Rain = 0
KPVS 231714Z 22013KT 16/M07 A2998 RMK A01 T01601068  RH  020%=      5-min Rain = 0
KPVS 231715Z 21013KT 16/M07 A2998 RMK A01 T01601067  RH  021%=      5-min Rain = 0
KPVS 231716Z 21013KT 16/M07 A2997 RMK A01 T01601065  RH  021%=      5-min Rain = 0
KPVS 231717Z 21014KT 16/M06 A2997 RMK A01 T01611064  RH  021%=      5-min Rain = 0
KPVS 231718Z 21014G19KT 16/M06 A2997 RMK A01 T01611063  RH  021%=      5-min Rain = 0
KPVS 231719Z 21014KT 16/M06 A2997 RMK A01 T01611063  RH  021%=      5-min Rain = 0
KPVS 231720Z 21013KT 16/M07 A2997 RMK A01 T01591065  RH  021%=      5-min Rain = 0
KPVS 231721Z 21013KT 16/M07 A2997 RMK A01 T01571065  RH  021%=      5-min Rain = 0
KPVS 231722Z 21013KT 16/M06 A2997 RMK A01 T01581062  RH  021%=      5-min Rain = 0
KPVS 231723Z 21013KT 16/M06 A2997 RMK A01 T01591061  RH  021%=      5-min Rain = 0
KPVS 231724Z 21014KT 16/M06 A2997 RMK A01 T01601061  RH  021%=      5-min Rain = 0
KPVS 231725Z 22012KT 16/M06 A2997 RMK A01 T01601060  RH  021%=      5-min Rain = 0
KPVS 231726Z 22012G18KT 16/M06 A2997 RMK A01 T01621060  RH  021%=      5-min Rain = 0
KPVS 231727Z 22014KT 16/M06 A2997 RMK A01 T01621060  RH  021%=      5-min Rain = 0
KPVS 231728Z 23014KT 16/M06 A2997 RMK A01 T01611061  RH  021%=      5-min Rain = 0
KPVS 231729Z 23012KT 16/M06 A2997 RMK A01 T01601061  RH  021%=      5-min Rain = 0
KPVS 231730Z 20013KT 16/M06 A2997 RMK A01 T01601058  RH  022%=      5-min Rain = 0
KPVS 231731Z 22012KT 16/M06 A2997 RMK A01 T01601060  RH  022%=      5-min Rain = 0
KPVS 231732Z 23010KT 16/M06 A2997 RMK A01 T01601058  RH  022%=      5-min Rain = 0
KPVS 231733Z 22013G19KT 16/M06 A2996 RMK A01 T01601055  RH  022%=      5-min Rain = 0
KPVS 231734Z 21014G20KT 16/M06 A2996 RMK A01 T01611058  RH  022%=      5-min Rain = 0
KPVS 231735Z 22011KT 16/M06 A2996 RMK A01 T01611058  RH  022%=      5-min Rain = 0
KPVS 231736Z 22009KT 16/M05 A2996 RMK A01 T01611054  RH  022%=      5-min Rain = 0
KPVS 231737Z 22010G17KT 16/M05 A2996 RMK A01 T01631052  RH  023%=      5-min Rain = 0
KPVS 231738Z 23010KT 17/M05 A2996 RMK A01 T01661050  RH  022%=      5-min Rain = 0
KPVS 231739Z 23011KT 17/M05 A2996 RMK A01 T01661054  RH  022%=      5-min Rain = 0
KPVS 231740Z 23009G15KT 17/M05 A2996 RMK A01 T01651052  RH  022%=      5-min Rain = 0
KPVS 231741Z 24012KT 17/M05 A2996 RMK A01 T01661047  RH  023%=      5-min Rain = 0
KPVS 231742Z 23011KT 17/M05 A2996 RMK A01 T01671051  RH  022%=      5-min Rain = 0
KPVS 231743Z 23010KT 17/M05 A2996 RMK A01 T01651054  RH  022%=      5-min Rain = 0
KPVS 231744Z 23011KT 16/M05 A2996 RMK A01 T01641052  RH  022%=      5-min Rain = 0
KPVS 231745Z 23011KT 17/M05 A2995 RMK A01 T01651052  RH  022%=      5-min Rain = 0
KPVS 231746Z 25008KT 17/M05 A2995 RMK A01 T01651050  RH  022%=      5-min Rain = 0
KPVS 231747Z 23008KT 17/M05 A2995 RMK A01 T01651047  RH  023%=      5-min Rain = 0
KPVS 231748Z 23008KT 17/M05 A2995 RMK A01 T01681047  RH  023%=      5-min Rain = 0
KPVS 231749Z 23008G15KT 17/M04 A2995 RMK A01 T01701043  RH  023%=      5-min Rain = 0
KPVS 231750Z 24010KT 17/M05 A2995 RMK A01 T01721054  RH  021%=      5-min Rain = 0
KPVS 231751Z 24009G15KT 17/M05 A2995 RMK A01 T01711054  RH  021%=      5-min Rain = 0
KPVS 231752Z 23012KT 17/M06 A2995 RMK A01 T01711056  RH  021%=      5-min Rain = 0
KPVS 231753Z 23010KT 17/M06 A2995 RMK A01 T01701055  RH  021%=      5-min Rain = 0
KPVS 231754Z 24008KT 17/M05 A2994 RMK A01 T01711053  RH  021%=      5-min Rain = 0
KPVS 231755Z 24010G16KT 17/M05 A2994 RMK A01 T01731053  RH  021%=      5-min Rain = 0
KPVS 231756Z 23012KT 17/M06 A2994 RMK A01 T01731055  RH  021%=      5-min Rain = 0
KPVS 231757Z 24011KT 17/M05 A2994 RMK A01 T01721054  RH  021%=      5-min Rain = 0
KPVS 231758Z 25008KT 17/M05 A2994 RMK A01 T01721053  RH  021%=      5-min Rain = 0
KPVS 231759Z 23011KT 17/M05 A2994 RMK A01 T01731051  RH  021%=      5-min Rain = 0
KPVS 231800Z 23010KT 17/M06 A2994 RMK A01 T01741056  RH  020%=      5-min Rain = 0
KPVS 231801Z 25010G15KT 18/M05 A2994 RMK A01 T01751054  RH  021%=      5-min Rain = 0
KPVS 231802Z 25009G14KT 18/M05 A2994 RMK A01 T01761053  RH  021%=      5-min Rain = 0
KPVS 231803Z 25012G17KT 18/M06 A2994 RMK A01 T01771056  RH  020%=      5-min Rain = 0
KPVS 231804Z 25011G16KT 18/M06 A2994 RMK A01 T01771058  RH  020%=      5-min Rain = 0
KPVS 231805Z 26010KT 18/M06 A2994 RMK A01 T01781057  RH  020%=      5-min Rain = 0
KPVS 231806Z 25009G14KT 18/M05 A2994 RMK A01 T01801053  RH  020%=      5-min Rain = 0
KPVS 231807Z 25010KT 18/M05 A2994 RMK A01 T01821052  RH  020%=      5-min Rain = 0
KPVS 231808Z 24008G14KT 18/M05 A2994 RMK A01 T01821052  RH  020%=      5-min Rain = 0
KPVS 231809Z 25012KT 18/M05 A2994 RMK A01 T01821050  RH  020%=      5-min Rain = 0
KPVS 231810Z 25012G17KT 18/M06 A2994 RMK A01 T01821055  RH  019%=      5-min Rain = 0
KPVS 231811Z 25014KT 18/M05 A2994 RMK A01 T01801054  RH  020%=      5-min Rain = 0
KPVS 231812Z 25012KT 18/M05 A2994 RMK A01 T01771054  RH  020%=      5-min Rain = 0
KPVS 231813Z 25011G20KT 18/M05 A2994 RMK A01 T01761051  RH  021%=      5-min Rain = 0
KPVS 231814Z 24016G21KT 18/M05 A2993 RMK A01 T01781053  RH  020%=      5-min Rain = 0
KPVS 231815Z 25013G19KT 18/M06 A2993 RMK A01 T01771055  RH  020%=      5-min Rain = 0
KPVS 231816Z 24013G18KT 18/M05 A2993 RMK A01 T01771052  RH  020%=      5-min Rain = 0
KPVS 231817Z 24012G18KT 18/M05 A2993 RMK A01 T01801047  RH  021%=      5-min Rain = 0
KPVS 231818Z 23014KT 18/M05 A2993 RMK A01 T01811050  RH  020%=      5-min Rain = 0
KPVS 231819Z 25013G18KT 18/M05 A2993 RMK A01 T01811048  RH  021%=      5-min Rain = 0
KPVS 231820Z 25013KT 18/M05 A2993 RMK A01 T01811051  RH  020%=      5-min Rain = 0
KPVS 231821Z 23011KT 18/M05 A2993 RMK A01 T01801047  RH  021%=      5-min Rain = 0
KPVS 231822Z 24012G19KT 18/M04 A2993 RMK A01 T01821042  RH  021%=      5-min Rain = 0
KPVS 231823Z 24018KT 18/M05 A2993 RMK A01 T01831045  RH  021%=      5-min Rain = 0
KPVS 231824Z 24017G22KT 18/M05 A2993 RMK A01 T01811047  RH  021%=      5-min Rain = 0
KPVS 231825Z 24014G20KT 18/M05 A2993 RMK A01 T01791045  RH  021%=      5-min Rain = 0
KPVS 231826Z 24012G19KT 18/M04 A2993 RMK A01 T01801044  RH  021%=      5-min Rain = 0
KPVS 231827Z 25015KT 18/M04 A2993 RMK A01 T01821042  RH  021%=      5-min Rain = 0
KPVS 231828Z 24016G22KT 18/M04 A2993 RMK A01 T01831043  RH  021%=      5-min Rain = 0
KPVS 231829Z 25016G23KT 18/M05 A2993 RMK A01 T01841048  RH  020%=      5-min Rain = 0
KPVS 231830Z 24017G25KT 18/M05 A2993 RMK A01 T01841047  RH  020%=      5-min Rain = 0
KPVS 231831Z 24016G23KT 19/M05 A2993 RMK A01 T01851047  RH  020%=      5-min Rain = 0
KPVS 231832Z 24015G22KT 19/M05 A2993 RMK A01 T01851046  RH  020%=      5-min Rain = 0
KPVS 231833Z 24016KT 18/M05 A2993 RMK A01 T01841045  RH  021%=      5-min Rain = 0
KPVS 231834Z 23021G27KT 18/M05 A2992 RMK A01 T01841047  RH  020%=      5-min Rain = 0
KPVS 231835Z 23021G26KT 18/M05 A2992 RMK A01 T01841049  RH  020%=      5-min Rain = 0
KPVS 231836Z 23021KT 18/M05 A2992 RMK A01 T01841051  RH  020%=      5-min Rain = 0
KPVS 231837Z 24015G23KT 18/M05 A2992 RMK A01 T01841049  RH  020%=      5-min Rain = 0
KPVS 231838Z 25014G19KT 19/M05 A2992 RMK A01 T01861049  RH  020%=      5-min Rain = 0
KPVS 231839Z 25012G17KT 19/M05 A2992 RMK A01 T01861047  RH  020%=      5-min Rain = 0
KPVS 231840Z 24015G20KT 19/M05 A2992 RMK A01 T01861046  RH  020%=      5-min Rain = 0
KPVS 231841Z 23015KT 19/M05 A2992 RMK A01 T01861047  RH  020%=      5-min Rain = 0
KPVS 231842Z 23011G16KT 19/M05 A2992 RMK A01 T01861046  RH  020%=      5-min Rain = 0
KPVS 231843Z 23014G19KT 19/M04 A2992 RMK A01 T01861044  RH  021%=      5-min Rain = 0
KPVS 231844Z 24012KT 19/M04 A2992 RMK A01 T01861044  RH  021%=      5-min Rain = 0
KPVS 231845Z 23013G21KT 19/M04 A2991 RMK A01 T01871043  RH  021%=      5-min Rain = 0
KPVS 231846Z 24014G20KT 19/M05 A2991 RMK A01 T01891046  RH  020%=      5-min Rain = 0
KPVS 231847Z 24018G23KT 19/M05 A2991 RMK A01 T01891049  RH  019%=      5-min Rain = 0
KPVS 231848Z 24016KT 19/M05 A2991 RMK A01 T01891052  RH  019%=      5-min Rain = 0
KPVS 231849Z 24011KT 19/M05 A2991 RMK A01 T01891049  RH  020%=      5-min Rain = 0
KPVS 231850Z 25010G15KT 19/M05 A2991 RMK A01 T01911047  RH  020%=      5-min Rain = 0
KPVS 231851Z 24011KT 19/M05 A2991 RMK A01 T01921049  RH  019%=      5-min Rain = 0
KPVS 231852Z 24014G19KT 19/M05 A2991 RMK A01 T01941047  RH  019%=      5-min Rain = 0
KPVS 231853Z 25014KT 20/M05 A2991 RMK A01 T01951053  RH  018%=      5-min Rain = 0
KPVS 231854Z 24014G19KT 20/M05 A299 RMK A01 T01951052  RH  018%=      5-min Rain = 0
KPVS 231855Z 24011G16KT 19/M05 A299 RMK A01 T01931053  RH  018%=      5-min Rain = 0
KPVS 231856Z 22010G15KT 19/M05 A299 RMK A01 T01941045  RH  019%=      5-min Rain = 0
KPVS 231857Z 22013KT 20/M05 A299 RMK A01 T01971050  RH  018%=      5-min Rain = 0
KPVS 231858Z 22013G19KT 20/M05 A299 RMK A01 T01971048  RH  019%=      5-min Rain = 0
KPVS 231859Z 23013G20KT 20/M05 A299 RMK A01 T01991048  RH  018%=      5-min Rain = 0
KPVS 231900Z 23017G22KT 20/M06 A299 RMK A01 T01991055  RH  018%=      5-min Rain = 0
KPVS 231901Z 23015KT 20/M06 A2989 RMK A01 T01961055  RH  018%=      5-min Rain = 0
KPVS 231902Z 23010G16KT 20/M05 A2989 RMK A01 T01971049  RH  019%=      5-min Rain = 0
KPVS 231903Z 24012KT 20/M05 A2989 RMK A01 T02001045  RH  019%=      5-min Rain = 0
KPVS 231904Z 23014G21KT 20/M05 A2989 RMK A01 T02021049  RH  018%=      5-min Rain = 0
KPVS 231905Z 23015G20KT 20/M05 A2989 RMK A01 T02021052  RH  018%=      5-min Rain = 0
KPVS 231906Z 23019G24KT 20/M05 A2989 RMK A01 T02011054  RH  017%=      5-min Rain = 0
KPVS 231907Z 22015KT 20/M06 A2989 RMK A01 T01991056  RH  017%=      5-min Rain = 0
KPVS 231908Z 22016KT 20/M05 A2989 RMK A01 T01981053  RH  018%=      5-min Rain = 0
KPVS 231909Z 22016G23KT 20/M05 A2988 RMK A01 T01991051  RH  018%=      5-min Rain = 0
KPVS 231910Z 22018G25KT 20/M05 A2988 RMK A01 T02021052  RH  018%=      5-min Rain = 0
KPVS 231911Z 23017KT 20/M06 A2988 RMK A01 T02031055  RH  017%=      5-min Rain = 0
KPVS 231912Z 24017G23KT 20/M05 A2988 RMK A01 T02041053  RH  017%=      5-min Rain = 0
KPVS 231913Z 23016G22KT 21/M05 A2988 RMK A01 T02051052  RH  017%=      5-min Rain = 0
KPVS 231914Z 23017G22KT 21/M06 A2988 RMK A01 T02071058  RH  016%=      5-min Rain = 0
KPVS 231915Z 22017G25KT 21/M06 A2988 RMK A01 T02061057  RH  017%=      5-min Rain = 0
KPVS 231916Z 23014KT 21/M06 A2988 RMK A01 T02061057  RH  016%=      5-min Rain = 0
KPVS 231917Z 23016G24KT 21/M05 A2988 RMK A01 T02081053  RH  017%=      5-min Rain = 0
KPVS 231918Z 22017G25KT 21/M06 A2988 RMK A01 T02101056  RH  016%=      5-min Rain = 0
KPVS 231919Z 23019G27KT 21/M06 A2988 RMK A01 T02111058  RH  016%=      5-min Rain = 0
KPVS 231920Z 23018G26KT 21/M06 A2988 RMK A01 T02111060  RH  016%=      5-min Rain = 0
KPVS 231921Z 24017G22KT 21/M06 A2987 RMK A01 T02081060  RH  016%=      5-min Rain = 0
KPVS 231922Z 24014G25KT 21/M06 A2987 RMK A01 T02081056  RH  016%=      5-min Rain = 0
KPVS 231923Z 24016G24KT 21/M06 A2987 RMK A01 T02101056  RH  016%=      5-min Rain = 0
KPVS 231924Z 23019KT 21/M06 A2987 RMK A01 T02111057  RH  016%=      5-min Rain = 0
KPVS 231925Z 24015G24KT 21/M06 A2987 RMK A01 T02111060  RH  016%=      5-min Rain = 0
KPVS 231926Z 24018G27KT 21/M06 A2987 RMK A01 T02111058  RH  016%=      5-min Rain = 0
KPVS 231927Z 23019G25KT 21/M06 A2987 RMK A01 T02131060  RH  015%=      5-min Rain = 0
KPVS 231928Z 24019G24KT 21/M06 A2986 RMK A01 T02131064  RH  015%=      5-min Rain = 0
KPVS 231929Z 22019G27KT 21/M06 A2986 RMK A01 T02141061  RH  015%=      5-min Rain = 0
KPVS 231930Z 22021G31KT 22/M06 A2986 RMK A01 T02151063  RH  015%=      5-min Rain = 0
KPVS 231931Z 22020G27KT 22/M06 A2986 RMK A01 T02151062  RH  015%=      5-min Rain = 0
KPVS 231932Z 22018G28KT 22/M06 A2986 RMK A01 T02161061  RH  015%=      5-min Rain = 0
KPVS 231933Z 22019G26KT 22/M06 A2986 RMK A01 T02161062  RH  015%=      5-min Rain = 0
KPVS 231934Z 22018G24KT 22/M06 A2986 RMK A01 T02151062  RH  015%=      5-min Rain = 0
KPVS 231935Z 23021KT 22/M06 A2985 RMK A01 T02151064  RH  015%=      5-min Rain = 0
KPVS 231936Z 23016G23KT 22/M06 A2986 RMK A01 T02151063  RH  015%=      5-min Rain = 0
KPVS 231937Z 22017G25KT 22/M06 A2985 RMK A01 T02181063  RH  015%=      5-min Rain = 0
KPVS 231938Z 22020G25KT 22/M06 A2985 RMK A01 T02191063  RH  015%=      5-min Rain = 0
KPVS 231939Z 23018G26KT 22/M07 A2985 RMK A01 T02201065  RH  014%=      5-min Rain = 0
KPVS 231940Z 23020G26KT 22/M07 A2985 RMK A01 T02211067  RH  014%=      5-min Rain = 0
KPVS 231941Z 23017G23KT 22/M07 A2985 RMK A01 T02211067  RH  014%=      5-min Rain = 0
KPVS 231942Z 22023G30KT 22/M07 A2985 RMK A01 T02201068  RH  014%=      5-min Rain = 0
KPVS 231943Z 21022KT 22/M07 A2985 RMK A01 T02161070  RH  014%=      5-min Rain = 0
KPVS 231944Z 22018G24KT 21/M07 A2985 RMK A01 T02131068  RH  015%=      5-min Rain = 0
KPVS 231945Z 23019G25KT 21/M07 A2985 RMK A01 T02131065  RH  015%=      5-min Rain = 0
KPVS 231946Z 22016G26KT 21/M07 A2985 RMK A01 T02131066  RH  015%=      5-min Rain = 0
KPVS 231947Z 22020G26KT 21/M07 A2984 RMK A01 T02131067  RH  015%=      5-min Rain = 0
KPVS 231948Z 23022G30KT 21/M07 A2985 RMK A01 T02141067  RH  015%=      5-min Rain = 0
KPVS 231949Z 23019G25KT 22/M07 A2985 RMK A01 T02161066  RH  014%=      5-min Rain = 0
KPVS 231950Z 23021G28KT 22/M07 A2984 RMK A01 T02191067  RH  014%=      5-min Rain = 0
KPVS 231951Z 23022G27KT 22/M07 A2984 RMK A01 T02201073  RH  013%=      5-min Rain = 0
KPVS 231952Z 22019KT 22/M07 A2984 RMK A01 T02191071  RH  014%=      5-min Rain = 0
KPVS 231953Z 21018G25KT 22/M07 A2984 RMK A01 T02221067  RH  014%=      5-min Rain = 0
KPVS 231954Z 22022G30KT 22/M07 A2984 RMK A01 T02231069  RH  014%=      5-min Rain = 0
KPVS 231955Z 21023G30KT 22/M07 A2983 RMK A01 T02231071  RH  013%=      5-min Rain = 0
KPVS 231956Z 21023KT 22/M07 A2983 RMK A01 T02231074  RH  013%=      5-min Rain = 0
KPVS 231957Z 21021G30KT 22/M07 A2983 RMK A01 T02241071  RH  013%=      5-min Rain = 0
KPVS 231958Z 22022G29KT 23/M08 A2983 RMK A01 T02261075  RH  013%=      5-min Rain = 0
KPVS 231959Z 22022G29KT 23/M08 A2983 RMK A01 T02271081  RH  012%=      5-min Rain = 0
KPVS 232000Z 22020G28KT 23/M08 A2983 RMK A01 T02271079  RH  012%=      5-min Rain = 0
KPVS 232001Z 22025G34KT 23/M08 A2983 RMK A01 T02301078  RH  012%=      5-min Rain = 0
KPVS 232002Z 23025G32KT 23/M08 A2983 RMK A01 T02311084  RH  012%=      5-min Rain = 0
KPVS 232003Z 23019G27KT 23/M08 A2983 RMK A01 T02291083  RH  012%=      5-min Rain = 0
KPVS 232004Z 23022G27KT 23/M08 A2983 RMK A01 T02291084  RH  012%=      5-min Rain = 0
KPVS 232005Z 22017G26KT 23/M08 A2983 RMK A01 T02291081  RH  012%=      5-min Rain = 0
KPVS 232006Z 22018G25KT 23/M08 A2983 RMK A01 T02331077  RH  012%=      5-min Rain = 0
KPVS 232007Z 23024G32KT 24/M08 A2983 RMK A01 T02351078  RH  012%=      5-min Rain = 0
KPVS 232008Z 23018G27KT 23/M08 A2983 RMK A01 T02341081  RH  012%=      5-min Rain = 0
KPVS 232009Z 22020G28KT 23/M08 A2983 RMK A01 T02311082  RH  012%=      5-min Rain = 0
KPVS 232010Z 21021G29KT 23/M08 A2982 RMK A01 T02301080  RH  012%=      5-min Rain = 0
KPVS 232011Z 22018G26KT 23/M08 A2983 RMK A01 T02321080  RH  012%=      5-min Rain = 0
KPVS 232012Z 23023G29KT 23/M08 A2982 RMK A01 T02331081  RH  012%=      5-min Rain = 0
KPVS 232013Z 24023G30KT 23/M09 A2983 RMK A01 T02321085  RH  011%=      5-min Rain = 0
KPVS 232014Z 23018G25KT 23/M09 A2983 RMK A01 T02291086  RH  011%=      5-min Rain = 0
KPVS 232015Z 22020G27KT 23/M08 A2982 RMK A01 T02291082  RH  012%=      5-min Rain = 0
KPVS 232016Z 22024G31KT 23/M08 A2982 RMK A01 T02311081  RH  012%=      5-min Rain = 0
KPVS 232017Z 23020G30KT 23/M08 A2982 RMK A01 T02311082  RH  012%=      5-min Rain = 0
KPVS 232018Z 24017G26KT 23/M08 A2982 RMK A01 T02321082  RH  012%=      5-min Rain = 0
KPVS 232019Z 23019G27KT 23/M08 A2982 RMK A01 T02321083  RH  012%=      5-min Rain = 0
KPVS 232020Z 22019G27KT 23/M08 A2982 RMK A01 T02331079  RH  012%=      5-min Rain = 0
KPVS 232021Z 23018G29KT 23/M08 A2982 RMK A01 T02341079  RH  012%=      5-min Rain = 0
KPVS 232022Z 22021G29KT 23/M08 A2982 RMK A01 T02341081  RH  012%=      5-min Rain = 0
KPVS 232023Z 22024G33KT 23/M08 A2982 RMK A01 T02331080  RH  012%=      5-min Rain = 0
KPVS 232024Z 22023G33KT 23/M08 A2982 RMK A01 T02321082  RH  012%=      5-min Rain = 0
KPVS 232025Z 22025G32KT 23/M08 A2982 RMK A01 T02321082  RH  012%=      5-min Rain = 0
KPVS 232026Z 22025G33KT 23/M09 A2982 RMK A01 T02311085  RH  011%=      5-min Rain = 0
KPVS 232027Z 22022G27KT 23/M08 A2982 RMK A01 T02301084  RH  012%=      5-min Rain = 0
KPVS 232028Z 23022G29KT 23/M08 A2982 RMK A01 T02301084  RH  012%=      5-min Rain = 0
KPVS 232029Z 22022G31KT 23/M08 A2981 RMK A01 T02321081  RH  012%=      5-min Rain = 0
KPVS 232030Z 24025G33KT 23/M08 A2981 RMK A01 T02331084  RH  011%=      5-min Rain = 0
KPVS 232031Z 24020G28KT 23/M09 A2981 RMK A01 T02331088  RH  011%=      5-min Rain = 0
KPVS 232032Z 23020G30KT 23/M09 A2981 RMK A01 T02321085  RH  011%=      5-min Rain = 0
KPVS 232033Z 23021G29KT 23/M09 A2981 RMK A01 T02321086  RH  011%=      5-min Rain = 0
KPVS 232034Z 22022G30KT 23/M09 A2981 RMK A01 T02331085  RH  011%=      5-min Rain = 0
KPVS 232035Z 22021G30KT 23/M08 A2981 RMK A01 T02341083  RH  011%=      5-min Rain = 0
KPVS 232036Z 22023G31KT 23/M09 A2981 RMK A01 T02341087  RH  011%=      5-min Rain = 0
KPVS 232037Z 23019G26KT 23/M09 A2981 RMK A01 T02321088  RH  011%=      5-min Rain = 0
KPVS 232038Z 23024G30KT 23/M09 A2981 RMK A01 T02331086  RH  011%=      5-min Rain = 0
KPVS 232039Z 23021G26KT 23/M09 A2981 RMK A01 T02331090  RH  011%=      5-min Rain = 0
KPVS 232040Z 23021G30KT 23/M09 A2981 RMK A01 T02331089  RH  011%=      5-min Rain = 0
KPVS 232041Z 23016G23KT 23/M09 A2981 RMK A01 T02331088  RH  011%=      5-min Rain = 0
KPVS 232042Z 22019G27KT 24/M09 A2981 RMK A01 T02371085  RH  011%=      5-min Rain = 0
KPVS 232043Z 22023G30KT 24/M09 A2981 RMK A01 T02371091  RH  011%=      5-min Rain = 0
KPVS 232044Z 23020G25KT 23/M09 A2981 RMK A01 T02341090  RH  011%=      5-min Rain = 0
KPVS 232045Z 22018G32KT 24/M08 A2981 RMK A01 T02361081  RH  011%=      5-min Rain = 0
KPVS 232046Z 22025G31KT 24/M09 A298 RMK A01 T02391088  RH  011%=      5-min Rain = 0
KPVS 232047Z 21024G33KT 24/M09 A298 RMK A01 T02371092  RH  010%=      5-min Rain = 0
KPVS 232048Z 22022G33KT 24/M09 A298 RMK A01 T02351094  RH  010%=      5-min Rain = 0
KPVS 232049Z 22023G30KT 23/M09 A298 RMK A01 T02341094  RH  010%=      5-min Rain = 0
KPVS 232050Z 23019G27KT 24/M09 A298 RMK A01 T02351092  RH  011%=      5-min Rain = 0
KPVS 232051Z 23021G30KT 24/M09 A298 RMK A01 T02381089  RH  011%=      5-min Rain = 0
KPVS 232052Z 22022G29KT 24/M09 A298 RMK A01 T02391091  RH  010%=      5-min Rain = 0
KPVS 232053Z 21022G30KT 24/M09 A298 RMK A01 T02381091  RH  010%=      5-min Rain = 0
KPVS 232054Z 22022G30KT 24/M09 A298 RMK A01 T02381093  RH  010%=      5-min Rain = 0
KPVS 232055Z 22017G25KT 24/M09 A298 RMK A01 T02381092  RH  010%=      5-min Rain = 0
KPVS 232056Z 21023G32KT 24/M09 A298 RMK A01 T02391090  RH  010%=      5-min Rain = 0
KPVS 232057Z 22021G28KT 24/M10 A298 RMK A01 T02381097  RH  010%=      5-min Rain = 0
KPVS 232058Z 22021G34KT 24/M09 A298 RMK A01 T02361094  RH  010%=      5-min Rain = 0
KPVS 232059Z 23025G31KT 24/M10 A298 RMK A01 T02381095  RH  010%=      5-min Rain = 0
KPVS 232100Z 22021G30KT 24/M10 A298 RMK A01 T02371099  RH  010%=      5-min Rain = 0
KPVS 232101Z 22018G28KT 24/M10 A298 RMK A01 T02361097  RH  010%=      5-min Rain = 0
KPVS 232102Z 22020G27KT 24/M09 A298 RMK A01 T02381092  RH  010%=      5-min Rain = 0
KPVS 232103Z 21027G32KT 24/M09 A2979 RMK A01 T02401093  RH  010%=      5-min Rain = 0
KPVS 232104Z 23021G30KT 24/M10 A298 RMK A01 T02381096  RH  010%=      5-min Rain = 0
KPVS 232105Z 22017G24KT 24/M09 A298 RMK A01 T02371094  RH  010%=      5-min Rain = 0
KPVS 232106Z 22021G30KT 24/M10 A2979 RMK A01 T02381095  RH  010%=      5-min Rain = 0
KPVS 232107Z 23017G25KT 24/M10 A298 RMK A01 T02401095  RH  010%=      5-min Rain = 0
KPVS 232108Z 23018G28KT 24/M09 A298 RMK A01 T02421091  RH  010%=      5-min Rain = 0
KPVS 232109Z 23022G28KT 24/M09 A2979 RMK A01 T02431094  RH  010%=      5-min Rain = 0
KPVS 232110Z 22021G30KT 24/M09 A2979 RMK A01 T02411094  RH  010%=      5-min Rain = 0
KPVS 232111Z 22020G27KT 24/M10 A2979 RMK A01 T02401095  RH  010%=      5-min Rain = 0
KPVS 232112Z 22022G30KT 24/M10 A2979 RMK A01 T02401096  RH  010%=      5-min Rain = 0
KPVS 232113Z 22022G33KT 24/M09 A2979 RMK A01 T02401094  RH  010%=      5-min Rain = 0
KPVS 232114Z 22022G28KT 24/M10 A2979 RMK A01 T02401097  RH  010%=      5-min Rain = 0
KPVS 232115Z 22022G30KT 24/M10 A2979 RMK A01 T02391095  RH  010%=      5-min Rain = 0
KPVS 232116Z 23018KT 24/M09 A2979 RMK A01 T02391093  RH  010%=      5-min Rain = 0
KPVS 232117Z 22024G30KT 24/M09 A2979 RMK A01 T02411093  RH  010%=      5-min Rain = 0
KPVS 232118Z 22020G29KT 24/M10 A2979 RMK A01 T02401097  RH  010%=      5-min Rain = 0
KPVS 232119Z 22021G29KT 24/M10 A2979 RMK A01 T02401095  RH  010%=      5-min Rain = 0
KPVS 232120Z 22021G31KT 24/M10 A2978 RMK A01 T02401097  RH  010%=      5-min Rain = 0
KPVS 232121Z 22023G29KT 24/M10 A2978 RMK A01 T02401098  RH  010%=      5-min Rain = 0
KPVS 232122Z 23021G28KT 24/M10 A2978 RMK A01 T02401095  RH  010%=      5-min Rain = 0
KPVS 232123Z 21022G29KT 24/M10 A2978 RMK A01 T02411096  RH  010%=      5-min Rain = 0
KPVS 232124Z 21022G28KT 24/M10 A2978 RMK A01 T02401097  RH  010%=      5-min Rain = 0
KPVS 232125Z 22023G29KT 24/M10 A2978 RMK A01 T02401095  RH  010%=      5-min Rain = 0
KPVS 232126Z 22024G30KT 24/M10 A2978 RMK A01 T02401097  RH  010%=      5-min Rain = 0
KPVS 232127Z 22019G28KT 24/M10 A2978 RMK A01 T02391095  RH  010%=      5-min Rain = 0
KPVS 232128Z 22025G32KT 24/M10 A2978 RMK A01 T02411095  RH  010%=      5-min Rain = 0
KPVS 232129Z 22021G29KT 24/M10 A2978 RMK A01 T02411099  RH  010%=      5-min Rain = 0
KPVS 232130Z 22022G29KT 24/M10 A2978 RMK A01 T02401098  RH  010%=      5-min Rain = 0
KPVS 232131Z 22024G33KT 24/M10 A2978 RMK A01 T02401097  RH  010%=      5-min Rain = 0
KPVS 232132Z 22023G31KT 24/M10 A2978 RMK A01 T02411096  RH  010%=      5-min Rain = 0
KPVS 232133Z 22024G32KT 24/M10 A2978 RMK A01 T02411099  RH  010%=      5-min Rain = 0
KPVS 232134Z 23022G29KT 24/M10 A2978 RMK A01 T02401097  RH  010%=      5-min Rain = 0
KPVS 232135Z 23025G33KT 24/M10 A2978 RMK A01 T02401098  RH  010%=      5-min Rain = 0
KPVS 232136Z 22022G30KT 24/M10 A2978 RMK A01 T02411100  RH  010%=      5-min Rain = 0
KPVS 232137Z 23024G31KT 24/M10 A2978 RMK A01 T02411100  RH  010%=      5-min Rain = 0
KPVS 232138Z 24021G30KT 24/M10 A2978 RMK A01 T02411100  RH  010%=      5-min Rain = 0
KPVS 232139Z 24019G27KT 24/M10 A2978 RMK A01 T02411101  RH  009%=      5-min Rain = 0
KPVS 232140Z 23020G27KT 24/M10 A2978 RMK A01 T02421098  RH  010%=      5-min Rain = 0
KPVS 232141Z 23025G31KT 24/M10 A2978 RMK A01 T02431099  RH  010%=      5-min Rain = 0
KPVS 232142Z 22024G31KT 24/M10 A2978 RMK A01 T02431101  RH  009%=      5-min Rain = 0
KPVS 232143Z 23022G29KT 24/M10 A2978 RMK A01 T02421101  RH  009%=      5-min Rain = 0
KPVS 232144Z 24025G32KT 24/M11 A2978 RMK A01 T02411105  RH  009%=      5-min Rain = 0
KPVS 232145Z 23025G34KT 24/M11 A2978 RMK A01 T02411106  RH  009%=      5-min Rain = 0
KPVS 232146Z 24022G30KT 24/M11 A2978 RMK A01 T02411105  RH  009%=      5-min Rain = 0
KPVS 232147Z 24015G23KT 24/M10 A2977 RMK A01 T02411101  RH  009%=      5-min Rain = 0
KPVS 232148Z 22021G30KT 24/M10 A2977 RMK A01 T02431095  RH  010%=      5-min Rain = 0
KPVS 232149Z 22021G29KT 24/M10 A2977 RMK A01 T02441097  RH  010%=      5-min Rain = 0
KPVS 232150Z 23022G30KT 25/M10 A2977 RMK A01 T02451098  RH  010%=      5-min Rain = 0
KPVS 232151Z 23021G29KT 24/M10 A2977 RMK A01 T02441101  RH  009%=      5-min Rain = 0
KPVS 232152Z 23021G28KT 24/M10 A2977 RMK A01 T02421104  RH  009%=      5-min Rain = 0
KPVS 232153Z 23021G30KT 24/M10 A2977 RMK A01 T02411103  RH  009%=      5-min Rain = 0
KPVS 232154Z 22019G27KT 24/M10 A2977 RMK A01 T02421102  RH  009%=      5-min Rain = 0
KPVS 232155Z 22016G22KT 24/M10 A2977 RMK A01 T02441096  RH  010%=      5-min Rain = 0
KPVS 232156Z 23020G29KT 25/M10 A2977 RMK A01 T02461098  RH  009%=      5-min Rain = 0
KPVS 232157Z 22021G26KT 25/M10 A2977 RMK A01 T02461101  RH  009%=      5-min Rain = 0
KPVS 232158Z 22020G29KT 25/M10 A2977 RMK A01 T02461102  RH  009%=      5-min Rain = 0
KPVS 232159Z 23019G28KT 25/M10 A2977 RMK A01 T02451101  RH  009%=      5-min Rain = 0
KPVS 232200Z 23023G30KT 25/M10 A2977 RMK A01 T02451102  RH  009%=      5-min Rain = 0
KPVS 232201Z 23021G29KT 24/M11 A2977 RMK A01 T02441107  RH  009%=      5-min Rain = 0
KPVS 232202Z 22023G35KT 24/M11 A2977 RMK A01 T02431105  RH  009%=      5-min Rain = 0
KPVS 232203Z 22025G35KT 24/M11 A2976 RMK A01 T02441106  RH  009%=      5-min Rain = 0
KPVS 232204Z 22021G29KT 24/M10 A2977 RMK A01 T02431104  RH  009%=      5-min Rain = 0
KPVS 232205Z 22021G29KT 24/M10 A2977 RMK A01 T02441104  RH  009%=      5-min Rain = 0
KPVS 232206Z 22023G30KT 24/M11 A2977 RMK A01 T02441106  RH  009%=      5-min Rain = 0
KPVS 232207Z 22019G31KT 24/M10 A2977 RMK A01 T02441103  RH  009%=      5-min Rain = 0
KPVS 232208Z 22022G30KT 24/M10 A2977 RMK A01 T02441104  RH  009%=      5-min Rain = 0
KPVS 232209Z 23025G34KT 25/M11 A2977 RMK A01 T02451106  RH  009%=      5-min Rain = 0
KPVS 232210Z 23027G33KT 25/M11 A2977 RMK A01 T02451112  RH  008%=      5-min Rain = 0
KPVS 232211Z 23021G31KT 24/M11 A2977 RMK A01 T02441112  RH  009%=      5-min Rain = 0
KPVS 232212Z 22023G31KT 24/M11 A2977 RMK A01 T02441109  RH  009%=      5-min Rain = 0
KPVS 232213Z 23022G29KT 24/M11 A2977 RMK A01 T02441107  RH  009%=      5-min Rain = 0
KPVS 232214Z 23021G32KT 24/M11 A2977 RMK A01 T02441106  RH  009%=      5-min Rain = 0
KPVS 232215Z 23025G32KT 25/M11 A2977 RMK A01 T02451108  RH  009%=      5-min Rain = 0
KPVS 232216Z 23024G31KT 24/M11 A2977 RMK A01 T02441110  RH  009%=      5-min Rain = 0
KPVS 232217Z 23020G29KT 24/M11 A2977 RMK A01 T02441108  RH  009%=      5-min Rain = 0
KPVS 232218Z 22021G31KT 25/M11 A2977 RMK A01 T02451106  RH  009%=      5-min Rain = 0
KPVS 232219Z 22020G28KT 25/M11 A2977 RMK A01 T02451109  RH  009%=      5-min Rain = 0
KPVS 232220Z 23016G25KT 25/M11 A2977 RMK A01 T02451105  RH  009%=      5-min Rain = 0
KPVS 232221Z 22024G37KT 25/M11 A2976 RMK A01 T02461108  RH  009%=      5-min Rain = 0
KPVS 232222Z 22026G32KT 25/M11 A2976 RMK A01 T02451111  RH  009%=      5-min Rain = 0
KPVS 232223Z 23023G30KT 25/M11 A2976 RMK A01 T02451109  RH  009%=      5-min Rain = 0
KPVS 232224Z 23024G32KT 25/M11 A2976 RMK A01 T02451113  RH  008%=      5-min Rain = 0
KPVS 232225Z 23021G28KT 25/M11 A2976 RMK A01 T02451110  RH  009%=      5-min Rain = 0
KPVS 232226Z 23023G31KT 25/M11 A2976 RMK A01 T02451111  RH  009%=      5-min Rain = 0
KPVS 232227Z 24017G23KT 25/M11 A2976 RMK A01 T02451110  RH  009%=      5-min Rain = 0
KPVS 232228Z 23021G30KT 25/M11 A2976 RMK A01 T02461109  RH  009%=      5-min Rain = 0
KPVS 232229Z 23022G29KT 25/M11 A2976 RMK A01 T02461110  RH  009%=      5-min Rain = 0
KPVS 232230Z 22023G33KT 25/M11 A2976 RMK A01 T02451111  RH  009%=      5-min Rain = 0
KPVS 232231Z 23025G33KT 25/M12 A2976 RMK A01 T02451115  RH  008%=      5-min Rain = 0
KPVS 232232Z 23018G28KT 24/M12 A2976 RMK A01 T02441115  RH  008%=      5-min Rain = 0
KPVS 232233Z 24020G30KT 25/M11 A2976 RMK A01 T02451109  RH  009%=      5-min Rain = 0
KPVS 232234Z 23021G29KT 25/M11 A2976 RMK A01 T02461114  RH  008%=      5-min Rain = 0
KPVS 232235Z 23020G29KT 25/M11 A2976 RMK A01 T02461114  RH  008%=      5-min Rain = 0
KPVS 232236Z 23022G33KT 25/M12 A2976 RMK A01 T02451117  RH  008%=      5-min Rain = 0
KPVS 232237Z 23021G30KT 24/M12 A2976 RMK A01 T02441117  RH  008%=      5-min Rain = 0
KPVS 232238Z 23016G21KT 24/M12 A2976 RMK A01 T02441116  RH  008%=      5-min Rain = 0
KPVS 232239Z 23019G29KT 25/M11 A2976 RMK A01 T02451113  RH  008%=      5-min Rain = 0
KPVS 232240Z 24019G27KT 25/M11 A2976 RMK A01 T02451114  RH  008%=      5-min Rain = 0
KPVS 232241Z 24021G29KT 25/M12 A2976 RMK A01 T02451117  RH  008%=      5-min Rain = 0
KPVS 232242Z 23022G30KT 25/M12 A2976 RMK A01 T02451117  RH  008%=      5-min Rain = 0
KPVS 232243Z 24023G31KT 25/M12 A2976 RMK A01 T02451121  RH  008%=      5-min Rain = 0
KPVS 232244Z 23017G27KT 24/M12 A2976 RMK A01 T02441118  RH  008%=      5-min Rain = 0
KPVS 232245Z 23017G24KT 24/M11 A2976 RMK A01 T02441113  RH  008%=      5-min Rain = 0
KPVS 232246Z 24022G30KT 25/M12 A2976 RMK A01 T02451116  RH  008%=      5-min Rain = 0
KPVS 232247Z 23020G28KT 24/M12 A2976 RMK A01 T02441119  RH  008%=      5-min Rain = 0
KPVS 232248Z 23020G29KT 24/M12 A2976 RMK A01 T02431117  RH  008%=      5-min Rain = 0
KPVS 232249Z 23018G28KT 24/M12 A2976 RMK A01 T02431118  RH  008%=      5-min Rain = 0
KPVS 232250Z 23017G25KT 24/M12 A2976 RMK A01 T02431116  RH  008%=      5-min Rain = 0
KPVS 232251Z 23016G21KT 24/M11 A2976 RMK A01 T02441113  RH  008%=      5-min Rain = 0
KPVS 232252Z 23021G30KT 24/M11 A2975 RMK A01 T02441113  RH  008%=      5-min Rain = 0
KPVS 232253Z 24022G30KT 25/M12 A2975 RMK A01 T02451119  RH  008%=      5-min Rain = 0
KPVS 232254Z 24019G27KT 24/M12 A2975 RMK A01 T02441122  RH  008%=      5-min Rain = 0
KPVS 232255Z 23024G33KT 24/M12 A2975 RMK A01 T02441123  RH  008%=      5-min Rain = 0
KPVS 232256Z 23022G30KT 24/M13 A2975 RMK A01 T02441125  RH  008%=      5-min Rain = 0
KPVS 232257Z 24019G27KT 24/M12 A2975 RMK A01 T02441123  RH  008%=      5-min Rain = 0
KPVS 232258Z 24019G27KT 24/M12 A2975 RMK A01 T02441120  RH  008%=      5-min Rain = 0
KPVS 232259Z 24020G28KT 24/M12 A2975 RMK A01 T02441122  RH  008%=      5-min Rain = 0
KPVS 232300Z 23022G31KT 24/M12 A2975 RMK A01 T02431122  RH  008%=      5-min Rain = 0
KPVS 232301Z 24022G31KT 24/M12 A2975 RMK A01 T02431124  RH  008%=      5-min Rain = 0
KPVS 232302Z 24021G30KT 24/M13 A2975 RMK A01 T02421126  RH  008%=      5-min Rain = 0
KPVS 232303Z 23019G26KT 24/M12 A2975 RMK A01 T02421124  RH  008%=      5-min Rain = 0
KPVS 232304Z 24020G28KT 24/M12 A2975 RMK A01 T02421122  RH  008%=      5-min Rain = 0
KPVS 232305Z 25021G30KT 24/M13 A2975 RMK A01 T02421126  RH  008%=      5-min Rain = 0
KPVS 232306Z 24020G31KT 24/M13 A2975 RMK A01 T02421128  RH  008%=      5-min Rain = 0
KPVS 232307Z 24022G33KT 24/M13 A2975 RMK A01 T02421127  RH  008%=      5-min Rain = 0
KPVS 232308Z 23021G30KT 24/M13 A2975 RMK A01 T02421126  RH  008%=      5-min Rain = 0
KPVS 232309Z 23023G30KT 24/M13 A2975 RMK A01 T02421127  RH  008%=      5-min Rain = 0
KPVS 232310Z 23026G34KT 24/M13 A2975 RMK A01 T02421129  RH  008%=      5-min Rain = 0
KPVS 232311Z 23023G32KT 24/M13 A2975 RMK A01 T02411131  RH  007%=      5-min Rain = 0
KPVS 232312Z 24020G28KT 24/M13 A2976 RMK A01 T02411128  RH  008%=      5-min Rain = 0
KPVS 232313Z 23018G26KT 24/M13 A2976 RMK A01 T02411125  RH  008%=      5-min Rain = 0
KPVS 232314Z 23021G29KT 24/M12 A2975 RMK A01 T02411122  RH  008%=      5-min Rain = 0
KPVS 232315Z 23022G30KT 24/M12 A2975 RMK A01 T02411124  RH  008%=      5-min Rain = 0
KPVS 232316Z 23022G28KT 24/M12 A2975 RMK A01 T02411124  RH  008%=      5-min Rain = 0
KPVS 232317Z 23022G29KT 24/M13 A2975 RMK A01 T02411125  RH  008%=      5-min Rain = 0
KPVS 232318Z 23021G30KT 24/M13 A2975 RMK A01 T02401126  RH  008%=      5-min Rain = 0
KPVS 232319Z 23021G31KT 24/M12 A2975 RMK A01 T02411124  RH  008%=      5-min Rain = 0
KPVS 232320Z 23021G27KT 24/M12 A2976 RMK A01 T02401124  RH  008%=      5-min Rain = 0
KPVS 232321Z 23020G29KT 24/M13 A2976 RMK A01 T02401125  RH  008%=      5-min Rain = 0
KPVS 232322Z 23016G24KT 24/M12 A2976 RMK A01 T02401122  RH  008%=      5-min Rain = 0
KPVS 232323Z 24014G21KT 24/M12 A2976 RMK A01 T02401120  RH  008%=      5-min Rain = 0
KPVS 232324Z 23014G21KT 24/M12 A2976 RMK A01 T02401118  RH  008%=      5-min Rain = 0
KPVS 232325Z 24014G21KT 24/M12 A2976 RMK A01 T02401117  RH  008%=      5-min Rain = 0
KPVS 232326Z 24014G20KT 24/M12 A2976 RMK A01 T02401118  RH  008%=      5-min Rain = 0
KPVS 232327Z 24016G23KT 24/M12 A2976 RMK A01 T02401119  RH  008%=      5-min Rain = 0
KPVS 232328Z 24015KT 24/M12 A2976 RMK A01 T02391119  RH  008%=      5-min Rain = 0
KPVS 232329Z 24013G25KT 24/M12 A2976 RMK A01 T02391117  RH  008%=      5-min Rain = 0
KPVS 232330Z 24017G29KT 24/M12 A2976 RMK A01 T02391119  RH  008%=      5-min Rain = 0
KPVS 232331Z 24019G29KT 24/M12 A2976 RMK A01 T02391120  RH  008%=      5-min Rain = 0
KPVS 232332Z 24021G30KT 24/M13 A2976 RMK A01 T02391126  RH  008%=      5-min Rain = 0
KPVS 232333Z 24015G23KT 24/M13 A2976 RMK A01 T02391125  RH  008%=      5-min Rain = 0
KPVS 232334Z 24017G27KT 24/M12 A2976 RMK A01 T02381122  RH  008%=      5-min Rain = 0
KPVS 232335Z 24018G26KT 24/M12 A2976 RMK A01 T02381124  RH  008%=      5-min Rain = 0
KPVS 232336Z 24018G29KT 24/M13 A2976 RMK A01 T02381127  RH  008%=      5-min Rain = 0
KPVS 232337Z 24016G25KT 24/M13 A2976 RMK A01 T02381130  RH  008%=      5-min Rain = 0
KPVS 232338Z 24018G27KT 24/M13 A2976 RMK A01 T02371129  RH  008%=      5-min Rain = 0
KPVS 232339Z 24016G24KT 24/M13 A2976 RMK A01 T02371129  RH  008%=      5-min Rain = 0
KPVS 232340Z 25017G24KT 24/M13 A2976 RMK A01 T02361129  RH  008%=      5-min Rain = 0
KPVS 232341Z 25016G24KT 24/M13 A2976 RMK A01 T02361128  RH  008%=      5-min Rain = 0
KPVS 232342Z 24014G21KT 24/M13 A2976 RMK A01 T02351128  RH  008%=      5-min Rain = 0
KPVS 232343Z 25015G25KT 24/M13 A2976 RMK A01 T02351127  RH  008%=      5-min Rain = 0
KPVS 232344Z 24017G24KT 24/M13 A2976 RMK A01 T02351127  RH  008%=      5-min Rain = 0
KPVS 232345Z 24018G23KT 23/M13 A2976 RMK A01 T02341127  RH  008%=      5-min Rain = 0
KPVS 232346Z 24015G20KT 23/M13 A2976 RMK A01 T02341127  RH  008%=      5-min Rain = 0
KPVS 232347Z 24016G22KT 23/M13 A2976 RMK A01 T02341126  RH  008%=      5-min Rain = 0
KPVS 232348Z 24014G22KT 23/M13 A2976 RMK A01 T02331125  RH  008%=      5-min Rain = 0
KPVS 232349Z 24017G28KT 23/M13 A2976 RMK A01 T02321125  RH  008%=      5-min Rain = 0
KPVS 232350Z 24019G27KT 23/M13 A2976 RMK A01 T02321128  RH  008%=      5-min Rain = 0
KPVS 232351Z 24015G25KT 23/M13 A2976 RMK A01 T02321128  RH  008%=      5-min Rain = 0
KPVS 232352Z 24016G23KT 23/M13 A2976 RMK A01 T02321126  RH  008%=      5-min Rain = 0
KPVS 232353Z 24016G23KT 23/M13 A2976 RMK A01 T02311125  RH  008%=      5-min Rain = 0
KPVS 232354Z 24016G25KT 23/M13 A2976 RMK A01 T02311126  RH  008%=      5-min Rain = 0
KPVS 232355Z 24015G22KT 23/M13 A2976 RMK A01 T02311125  RH  008%=      5-min Rain = 0
KPVS 232356Z 24014G21KT 23/M12 A2976 RMK A01 T02311124  RH  008%=      5-min Rain = 0
KPVS 232357Z 24016G25KT 23/M12 A2976 RMK A01 T02301124  RH  008%=      5-min Rain = 0
KPVS 232358Z 24015G23KT 23/M13 A2976 RMK A01 T02301126  RH  008%=      5-min Rain = 0
KPVS 232359Z 24013G18KT 23/M12 A2976 RMK A01 T02291123  RH  009%=      5-min Rain = 0
KPVS 240000Z 24015G22KT 23/M12 A2976 RMK A01 T02281123  RH  009%=      5-min Rain = 0
KPVS 240001Z 24012G17KT 23/M12 A2976 RMK A01 T02281124  RH  009%=      5-min Rain = 0
KPVS 240002Z 24013G19KT 23/M12 A2976 RMK A01 T02271123  RH  009%=      5-min Rain = 0
KPVS 240003Z 24013G18KT 23/M12 A2976 RMK A01 T02271124  RH  009%=      5-min Rain = 0
KPVS 240004Z 25011KT 23/M12 A2976 RMK A01 T02261122  RH  009%=      5-min Rain = 0
KPVS 240005Z 24008KT 23/M12 A2976 RMK A01 T02251121  RH  009%=      5-min Rain = 0
KPVS 240006Z 25011G16KT 22/M12 A2976 RMK A01 T02241120  RH  009%=      5-min Rain = 0
KPVS 240007Z 25013G18KT 22/M12 A2976 RMK A01 T02231121  RH  009%=      5-min Rain = 0
KPVS 240008Z 25012G17KT 22/M12 A2976 RMK A01 T02231123  RH  009%=      5-min Rain = 0
KPVS 240009Z 24011KT 22/M12 A2976 RMK A01 T02231123  RH  009%=      5-min Rain = 0
KPVS 240010Z 25011G17KT 22/M12 A2976 RMK A01 T02221122  RH  009%=      5-min Rain = 0
KPVS 240011Z 25013G18KT 22/M12 A2976 RMK A01 T02211122  RH  009%=      5-min Rain = 0
KPVS 240012Z 25010G17KT 22/M12 A2976 RMK A01 T02211121  RH  009%=      5-min Rain = 0
KPVS 240013Z 25010G15KT 22/M12 A2976 RMK A01 T02201121  RH  009%=      5-min Rain = 0
KPVS 240014Z 24011KT 22/M12 A2976 RMK A01 T02191121  RH  009%=      5-min Rain = 0
KPVS 240015Z 24011KT 22/M12 A2976 RMK A01 T02191120  RH  009%=      5-min Rain = 0
KPVS 240016Z 24009G15KT 22/M12 A2976 RMK A01 T02181119  RH  009%=      5-min Rain = 0
KPVS 240017Z 24012KT 22/M12 A2976 RMK A01 T02161119  RH  010%=      5-min Rain = 0
KPVS 240018Z 25010KT 22/M12 A2976 RMK A01 T02161120  RH  009%=      5-min Rain = 0
KPVS 240019Z 24011G17KT 22/M12 A2976 RMK A01 T02161118  RH  010%=      5-min Rain = 0
KPVS 240020Z 24010KT 22/M12 A2976 RMK A01 T02151118  RH  010%=      5-min Rain = 0
KPVS 240021Z 24012G17KT 21/M12 A2976 RMK A01 T02141119  RH  010%=      5-min Rain = 0
KPVS 240022Z 25010KT 21/M12 A2976 RMK A01 T02141119  RH  010%=      5-min Rain = 0
KPVS 240023Z 25011G16KT 21/M12 A2976 RMK A01 T02141119  RH  010%=      5-min Rain = 0
KPVS 240024Z 24010KT 21/M12 A2976 RMK A01 T02131119  RH  010%=      5-min Rain = 0
KPVS 240025Z 24010G15KT 21/M12 A2976 RMK A01 T02121118  RH  010%=      5-min Rain = 0
KPVS 240026Z 24009KT 21/M12 A2976 RMK A01 T02111116  RH  010%=      5-min Rain = 0
KPVS 240027Z 24010KT 21/M12 A2976 RMK A01 T02091116  RH  010%=      5-min Rain = 0
KPVS 240028Z 24010KT 21/M12 A2976 RMK A01 T02081115  RH  010%=      5-min Rain = 0
KPVS 240029Z 25009KT 21/M11 A2976 RMK A01 T02071114  RH  011%=      5-min Rain = 0
KPVS 240030Z 24007KT 21/M11 A2976 RMK A01 T02051113  RH  011%=      5-min Rain = 0
KPVS 240031Z 24009KT 20/M11 A2976 RMK A01 T02031112  RH  011%=      5-min Rain = 0
KPVS 240032Z 24010KT 20/M11 A2977 RMK A01 T02031112  RH  011%=      5-min Rain = 0
KPVS 240033Z 25009KT 20/M11 A2977 RMK A01 T02021112  RH  011%=      5-min Rain = 0
KPVS 240034Z 25009KT 20/M11 A2977 RMK A01 T02011111  RH  011%=      5-min Rain = 0
KPVS 240035Z 24009KT 20/M11 A2977 RMK A01 T02001111  RH  011%=      5-min Rain = 0
KPVS 240036Z 24009KT 20/M11 A2977 RMK A01 T01991110  RH  011%=      5-min Rain = 0
KPVS 240037Z 24008KT 20/M11 A2977 RMK A01 T01981110  RH  011%=      5-min Rain = 0
KPVS 240038Z 23009KT 20/M11 A2977 RMK A01 T01971109  RH  012%=      5-min Rain = 0
KPVS 240039Z 23009KT 20/M11 A2977 RMK A01 T01951108  RH  012%=      5-min Rain = 0
KPVS 240040Z 23009KT 19/M11 A2977 RMK A01 T01931107  RH  012%=      5-min Rain = 0
KPVS 240041Z 23009KT 19/M11 A2977 RMK A01 T01901107  RH  012%=      5-min Rain = 0
KPVS 240042Z 24010KT 19/M11 A2977 RMK A01 T01881105  RH  013%=      5-min Rain = 0
KPVS 240043Z 24009KT 19/M11 A2977 RMK A01 T01871107  RH  013%=      5-min Rain = 0
KPVS 240044Z 24008KT 19/M11 A2977 RMK A01 T01851105  RH  013%=      5-min Rain = 0
KPVS 240045Z 24008KT 18/M11 A2977 RMK A01 T01841105  RH  013%=      5-min Rain = 0
KPVS 240046Z 23009KT 18/M10 A2977 RMK A01 T01821104  RH  013%=      5-min Rain = 0
KPVS 240047Z 24010KT 18/M10 A2977 RMK A01 T01811104  RH  013%=      5-min Rain = 0
KPVS 240048Z 23009KT 18/M10 A2977 RMK A01 T01791104  RH  013%=      5-min Rain = 0
KPVS 240049Z 23010KT 18/M10 A2977 RMK A01 T01781104  RH  014%=      5-min Rain = 0
KPVS 240050Z 23010KT 18/M10 A2977 RMK A01 T01761103  RH  014%=      5-min Rain = 0
KPVS 240051Z 23010KT 18/M10 A2977 RMK A01 T01751103  RH  014%=      5-min Rain = 0
KPVS 240052Z 23010KT 17/M10 A2977 RMK A01 T01731103  RH  014%=      5-min Rain = 0
KPVS 240053Z 24010KT 17/M10 A2977 RMK A01 T01721103  RH  014%=      5-min Rain = 0
KPVS 240054Z 23009KT 17/M10 A2977 RMK A01 T01711103  RH  014%=      5-min Rain = 0
KPVS 240055Z 23010KT 17/M10 A2977 RMK A01 T01701102  RH  015%=      5-min Rain = 0
KPVS 240056Z 23009KT 17/M10 A2977 RMK A01 T01691102  RH  015%=      5-min Rain = 0
KPVS 240057Z 23009KT 17/M10 A2977 RMK A01 T01681102  RH  015%=      5-min Rain = 0
KPVS 240058Z 23008KT 17/M10 A2977 RMK A01 T01661102  RH  015%=      5-min Rain = 0
KPVS 240059Z 23008KT 16/M10 A2977 RMK A01 T01641102  RH  015%=      5-min Rain = 0
KPVS 240100Z 22007KT 16/M10 A2978 RMK A01 T01631101  RH  015%=      5-min Rain = 0
KPVS 240101Z 22008KT 16/M10 A2978 RMK A01 T01621101  RH  016%=      5-min Rain = 0
KPVS 240102Z 23009KT 16/M10 A2978 RMK A01 T01611100  RH  016%=      5-min Rain = 0
KPVS 240103Z 23010G15KT 16/M10 A2978 RMK A01 T01601100  RH  016%=      5-min Rain = 0
KPVS 240104Z 23010KT 16/M10 A2978 RMK A01 T01591099  RH  016%=      5-min Rain = 0
KPVS 240105Z 23011KT 16/M10 A2978 RMK A01 T01591100  RH  016%=      5-min Rain = 0
KPVS 240106Z 23011KT 16/M10 A2978 RMK A01 T01611101  RH  016%=      5-min Rain = 0
KPVS 240107Z 23011KT 16/M10 A2978 RMK A01 T01631101  RH  015%=      5-min Rain = 0
KPVS 240108Z 23012G17KT 16/M10 A2978 RMK A01 T01631102  RH  015%=      5-min Rain = 0
KPVS 240109Z 23013KT 16/M10 A2978 RMK A01 T01641103  RH  015%=      5-min Rain = 0
KPVS 240110Z 22011G16KT 17/M11 A2978 RMK A01 T01671105  RH  014%=      5-min Rain = 0
KPVS 240111Z 22012KT 17/M11 A2978 RMK A01 T01701105  RH  014%=      5-min Rain = 0
KPVS 240112Z 22012KT 17/M11 A2978 RMK A01 T01711105  RH  014%=      5-min Rain = 0
KPVS 240113Z 22013KT 17/M10 A2978 RMK A01 T01711104  RH  014%=      5-min Rain = 0
KPVS 240114Z 22012KT 17/M10 A2978 RMK A01 T01711104  RH  014%=      5-min Rain = 0
KPVS 240115Z 23011KT 17/M10 A2978 RMK A01 T01711104  RH  014%=      5-min Rain = 0
KPVS 240116Z 23012KT 17/M10 A2978 RMK A01 T01691103  RH  015%=      5-min Rain = 0
KPVS 240117Z 23012KT 17/M10 A2978 RMK A01 T01681103  RH  015%=      5-min Rain = 0
KPVS 240118Z 23012KT 17/M10 A2978 RMK A01 T01681103  RH  015%=      5-min Rain = 0
KPVS 240119Z 23009KT 17/M10 A2978 RMK A01 T01681103  RH  015%=      5-min Rain = 0
KPVS 240120Z 23010KT 17/M10 A2978 RMK A01 T01661101  RH  015%=      5-min Rain = 0
KPVS 240121Z 23010KT 16/M10 A2978 RMK A01 T01641101  RH  015%=      5-min Rain = 0
KPVS 240122Z 23009G14KT 16/M10 A2978 RMK A01 T01631101  RH  015%=      5-min Rain = 0
KPVS 240123Z 23010KT 16/M10 A2978 RMK A01 T01621100  RH  016%=      5-min Rain = 0
KPVS 240124Z 23010KT 16/M10 A2978 RMK A01 T01611101  RH  016%=      5-min Rain = 0
KPVS 240125Z 23010KT 16/M10 A2978 RMK A01 T01611101  RH  016%=      5-min Rain = 0
KPVS 240126Z 23010KT 16/M10 A2979 RMK A01 T01601102  RH  016%=      5-min Rain = 0
KPVS 240127Z 23009KT 16/M10 A2979 RMK A01 T01581101  RH  016%=      5-min Rain = 0
KPVS 240128Z 23009KT 16/M10 A2979 RMK A01 T01561101  RH  016%=      5-min Rain = 0
KPVS 240129Z 23010KT 15/M10 A2979 RMK A01 T01541101  RH  016%=      5-min Rain = 0
KPVS 240130Z 23010KT 15/M10 A2979 RMK A01 T01531100  RH  016%=      5-min Rain = 0
KPVS 240131Z 23010KT 15/M10 A2979 RMK A01 T01521100  RH  017%=      5-min Rain = 0
KPVS 240132Z 23011KT 15/M10 A2979 RMK A01 T01511100  RH  017%=      5-min Rain = 0
KPVS 240133Z 23012KT 15/M10 A2979 RMK A01 T01511101  RH  017%=      5-min Rain = 0
KPVS 240134Z 23010G15KT 15/M10 A2979 RMK A01 T01511102  RH  016%=      5-min Rain = 0
KPVS 240135Z 23012KT 15/M10 A2979 RMK A01 T01511102  RH  016%=      5-min Rain = 0
KPVS 240136Z 23012KT 15/M10 A2979 RMK A01 T01531103  RH  016%=      5-min Rain = 0
KPVS 240137Z 23012KT 16/M10 A2979 RMK A01 T01551104  RH  016%=      5-min Rain = 0
KPVS 240138Z 23013G18KT 16/M10 A2979 RMK A01 T01551104  RH  016%=      5-min Rain = 0
KPVS 240139Z 23012G17KT 16/M11 A2979 RMK A01 T01561105  RH  016%=      5-min Rain = 0
KPVS 240140Z 23012G17KT 16/M11 A2979 RMK A01 T01571105  RH  016%=      5-min Rain = 0
KPVS 240141Z 23011KT 16/M11 A2979 RMK A01 T01581106  RH  015%=      5-min Rain = 0
KPVS 240142Z 23010G15KT 16/M10 A2979 RMK A01 T01591104  RH  015%=      5-min Rain = 0
KPVS 240143Z 24011KT 16/M11 A2979 RMK A01 T01581105  RH  015%=      5-min Rain = 0
KPVS 240144Z 23010G16KT 16/M11 A2979 RMK A01 T01581105  RH  015%=      5-min Rain = 0
KPVS 240145Z 23012KT 16/M11 A2979 RMK A01 T01571105  RH  016%=      5-min Rain = 0
KPVS 240146Z 23012KT 16/M11 A2979 RMK A01 T01571105  RH  015%=      5-min Rain = 0
KPVS 240147Z 23011KT 16/M10 A2979 RMK A01 T01571104  RH  016%=      5-min Rain = 0
KPVS 240148Z 22010G15KT 16/M10 A2979 RMK A01 T01551103  RH  016%=      5-min Rain = 0
KPVS 240149Z 23011KT 16/M10 A2979 RMK A01 T01551103  RH  016%=      5-min Rain = 0
KPVS 240150Z 22010G16KT 16/M10 A2979 RMK A01 T01551103  RH  016%=      5-min Rain = 0
KPVS 240151Z 22011KT 15/M10 A2979 RMK A01 T01531102  RH  016%=      5-min Rain = 0
KPVS 240152Z 23012KT 15/M10 A2979 RMK A01 T01521102  RH  016%=      5-min Rain = 0
KPVS 240153Z 22012KT 15/M10 A2979 RMK A01 T01501102  RH  017%=      5-min Rain = 0
KPVS 240154Z 22011KT 15/M10 A2979 RMK A01 T01491101  RH  017%=      5-min Rain = 0
KPVS 240155Z 22012KT 15/M10 A2979 RMK A01 T01481101  RH  017%=      5-min Rain = 0
KPVS 240156Z 22011KT 15/M10 A2979 RMK A01 T01481101  RH  017%=      5-min Rain = 0
KPVS 240157Z 22010G16KT 15/M10 A2979 RMK A01 T01481100  RH  017%=      5-min Rain = 0
KPVS 240158Z 22011KT 15/M10 A2979 RMK A01 T01471100  RH  017%=      5-min Rain = 0
KPVS 240159Z 22011KT 15/M10 A2979 RMK A01 T01471099  RH  017%=      5-min Rain = 0
KPVS 240200Z 22010KT 15/M10 A2979 RMK A01 T01461099  RH  017%=      5-min Rain = 0
KPVS 240201Z 22011KT 15/M10 A2979 RMK A01 T01451099  RH  018%=      5-min Rain = 0
KPVS 240202Z 22011KT 15/M10 A2979 RMK A01 T01451099  RH  017%=      5-min Rain = 0
KPVS 240203Z 23011G16KT 15/M10 A2979 RMK A01 T01451099  RH  017%=      5-min Rain = 0
KPVS 240204Z 23010KT 15/M10 A2979 RMK A01 T01451099  RH  017%=      5-min Rain = 0
KPVS 240205Z 24008KT 14/M10 A2979 RMK A01 T01441099  RH  018%=      5-min Rain = 0
KPVS 240206Z 24007KT 14/M10 A2979 RMK A01 T01431098  RH  018%=      5-min Rain = 0
KPVS 240207Z 25007KT 14/M10 A298 RMK A01 T01411097  RH  018%=      5-min Rain = 0
KPVS 240208Z 24008KT 14/M10 A298 RMK A01 T01391098  RH  018%=      5-min Rain = 0
KPVS 240209Z 24008KT 14/M10 A298 RMK A01 T01371098  RH  019%=      5-min Rain = 0
KPVS 240210Z 24008KT 14/M10 A298 RMK A01 T01361098  RH  019%=      5-min Rain = 0
KPVS 240211Z 24008KT 13/M10 A298 RMK A01 T01341098  RH  019%=      5-min Rain = 0
KPVS 240212Z 24009KT 13/M10 A298 RMK A01 T01331098  RH  019%=      5-min Rain = 0
KPVS 240213Z 24009KT 13/M10 A298 RMK A01 T01331098  RH  019%=      5-min Rain = 0
KPVS 240214Z 23010KT 13/M10 A298 RMK A01 T01331099  RH  019%=      5-min Rain = 0
KPVS 240215Z 24009KT 13/M10 A298 RMK A01 T01341099  RH  019%=      5-min Rain = 0
KPVS 240216Z 24008KT 13/M10 A298 RMK A01 T01341099  RH  019%=      5-min Rain = 0
KPVS 240217Z 24009KT 13/M10 A298 RMK A01 T01341099  RH  019%=      5-min Rain = 0
KPVS 240218Z 24008KT 13/M10 A298 RMK A01 T01331099  RH  019%=      5-min Rain = 0
KPVS 240219Z 24008KT 13/M10 A298 RMK A01 T01321099  RH  019%=      5-min Rain = 0
KPVS 240220Z 24008KT 13/M10 A298 RMK A01 T01321099  RH  019%=      5-min Rain = 0
KPVS 240221Z 23009KT 13/M10 A298 RMK A01 T01311099  RH  019%=      5-min Rain = 0
KPVS 240222Z 24009KT 13/M10 A298 RMK A01 T01311099  RH  019%=      5-min Rain = 0
KPVS 240223Z 23008KT 13/M10 A298 RMK A01 T01311099  RH  019%=      5-min Rain = 0
KPVS 240224Z 25008KT 13/M10 A298 RMK A01 T01311099  RH  019%=      5-min Rain = 0
KPVS 240225Z 24007KT 13/M10 A298 RMK A01 T01301099  RH  019%=      5-min Rain = 0
KPVS 240226Z 24008KT 13/M10 A298 RMK A01 T01291099  RH  019%=      5-min Rain = 0
KPVS 240227Z 24008KT 13/M10 A298 RMK A01 T01291099  RH  019%=      5-min Rain = 0
KPVS 240228Z 24007KT 13/M10 A298 RMK A01 T01291098  RH  020%=      5-min Rain = 0
KPVS 240229Z 24007KT 13/M10 A298 RMK A01 T01291099  RH  019%=      5-min Rain = 0
KPVS 240230Z 24008KT 13/M10 A298 RMK A01 T01291099  RH  019%=      5-min Rain = 0
KPVS 240231Z 23008KT 13/M10 A298 RMK A01 T01301099  RH  019%=      5-min Rain = 0
KPVS 240232Z 24008KT 13/M10 A298 RMK A01 T01291099  RH  019%=      5-min Rain = 0
KPVS 240233Z 23008KT 13/M10 A298 RMK A01 T01281099  RH  020%=      5-min Rain = 0
KPVS 240234Z 23008KT 13/M10 A298 RMK A01 T01271098  RH  020%=      5-min Rain = 0
KPVS 240235Z 24008KT 13/M10 A298 RMK A01 T01251098  RH  020%=      5-min Rain = 0
KPVS 240236Z 23008KT 12/M10 A298 RMK A01 T01241098  RH  020%=      5-min Rain = 0
KPVS 240237Z 23009KT 12/M10 A298 RMK A01 T01231098  RH  020%=      5-min Rain = 0
KPVS 240238Z 23009KT 12/M10 A298 RMK A01 T01221098  RH  020%=      5-min Rain = 0
KPVS 240239Z 23010KT 12/M10 A298 RMK A01 T01221098  RH  021%=      5-min Rain = 0
KPVS 240240Z 23009KT 12/M10 A298 RMK A01 T01211098  RH  021%=      5-min Rain = 0
KPVS 240241Z 24008KT 12/M10 A298 RMK A01 T01201098  RH  021%=      5-min Rain = 0
KPVS 240242Z 24009KT 12/M10 A298 RMK A01 T01191097  RH  021%=      5-min Rain = 0
KPVS 240243Z 23008KT 12/M10 A298 RMK A01 T01181097  RH  021%=      5-min Rain = 0
KPVS 240244Z 23008KT 12/M10 A298 RMK A01 T01171097  RH  021%=      5-min Rain = 0
KPVS 240245Z 23008KT 12/M10 A298 RMK A01 T01151096  RH  022%=      5-min Rain = 0
KPVS 240246Z 24008KT 11/M10 A298 RMK A01 T01141095  RH  022%=      5-min Rain = 0
KPVS 240247Z 23008KT 11/M10 A2981 RMK A01 T01121096  RH  022%=      5-min Rain = 0
KPVS 240248Z 23009KT 11/M10 A2981 RMK A01 T01111096  RH  022%=      5-min Rain = 0
KPVS 240249Z 24009KT 11/M10 A2981 RMK A01 T01111095  RH  023%=      5-min Rain = 0
KPVS 240250Z 23009KT 11/M10 A2981 RMK A01 T01091095  RH  023%=      5-min Rain = 0
KPVS 240251Z 23009KT 11/M10 A2981 RMK A01 T01081095  RH  023%=      5-min Rain = 0
KPVS 240252Z 23010KT 11/M09 A2981 RMK A01 T01081094  RH  023%=      5-min Rain = 0
KPVS 240253Z 23010KT 11/M09 A2981 RMK A01 T01081094  RH  023%=      5-min Rain = 0
KPVS 240254Z 23010KT 11/M10 A2981 RMK A01 T01081095  RH  023%=      5-min Rain = 0
KPVS 240255Z 23010KT 11/M10 A2981 RMK A01 T01091095  RH  023%=      5-min Rain = 0
KPVS 240256Z 23009G14KT 11/M10 A2981 RMK A01 T01091095  RH  023%=      5-min Rain = 0
KPVS 240257Z 23009KT 11/M10 A2981 RMK A01 T01091095  RH  023%=      5-min Rain = 0
KPVS 240258Z 23010KT 11/M10 A2981 RMK A01 T01091095  RH  023%=      5-min Rain = 0
KPVS 240259Z 23010KT 11/M10 A2981 RMK A01 T01101096  RH  023%=      5-min Rain = 0
KPVS 240300Z 23010KT 11/M10 A2981 RMK A01 T01121095  RH  022%=      5-min Rain = 0
KPVS 240301Z 22009KT 11/M09 A2981 RMK A01 T01121094  RH  023%=      5-min Rain = 0
KPVS 240302Z 22011KT 11/M09 A298 RMK A01 T01111094  RH  023%=      5-min Rain = 0
KPVS 240303Z 22011KT 11/M09 A298 RMK A01 T01101094  RH  023%=      5-min Rain = 0
KPVS 240304Z 22011G16KT 11/M09 A2981 RMK A01 T01101094  RH  023%=      5-min Rain = 0
KPVS 240305Z 23012KT 11/M09 A2981 RMK A01 T01101094  RH  023%=      5-min Rain = 0
KPVS 240306Z 23011G16KT 11/M09 A2981 RMK A01 T01111094  RH  023%=      5-min Rain = 0
KPVS 240307Z 23011KT 11/M09 A2981 RMK A01 T01121094  RH  023%=      5-min Rain = 0
KPVS 240308Z 23011KT 11/M10 A2981 RMK A01 T01121095  RH  022%=      5-min Rain = 0
KPVS 240309Z 23011G16KT 11/M10 A2981 RMK A01 T01131095  RH  022%=      5-min Rain = 0
KPVS 240310Z 23013KT 11/M10 A2981 RMK A01 T01141096  RH  022%=      5-min Rain = 0
KPVS 240311Z 23012KT 12/M10 A2981 RMK A01 T01151096  RH  022%=      5-min Rain = 0
KPVS 240312Z 24010KT 12/M10 A2981 RMK A01 T01151096  RH  022%=      5-min Rain = 0
KPVS 240313Z 24011KT 11/M10 A2981 RMK A01 T01131096  RH  022%=      5-min Rain = 0
KPVS 240314Z 23010KT 11/M10 A2981 RMK A01 T01121096  RH  022%=      5-min Rain = 0
KPVS 240315Z 23011KT 11/M10 A2981 RMK A01 T01111096  RH  022%=      5-min Rain = 0
KPVS 240316Z 23011KT 11/M10 A2981 RMK A01 T01121097  RH  022%=      5-min Rain = 0
KPVS 240317Z 23011KT 11/M10 A2981 RMK A01 T01111097  RH  022%=      5-min Rain = 0
KPVS 240318Z 23011G16KT 11/M10 A2981 RMK A01 T01101096  RH  023%=      5-min Rain = 0
KPVS 240319Z 23011KT 11/M10 A2981 RMK A01 T01091096  RH  023%=      5-min Rain = 0
KPVS 240320Z 23012G18KT 11/M10 A2981 RMK A01 T01101096  RH  022%=      5-min Rain = 0
KPVS 240321Z 23013KT 11/M10 A2981 RMK A01 T01101097  RH  022%=      5-min Rain = 0
KPVS 240322Z 23012KT 11/M10 A2981 RMK A01 T01111097  RH  022%=      5-min Rain = 0
KPVS 240323Z 23011G16KT 11/M10 A2981 RMK A01 T01121097  RH  022%=      5-min Rain = 0
KPVS 240324Z 23012KT 11/M10 A2981 RMK A01 T01121097  RH  022%=      5-min Rain = 0
KPVS 240325Z 23012KT 11/M10 A2981 RMK A01 T01111097  RH  022%=      5-min Rain = 0
KPVS 240326Z 23011KT 11/M10 A2981 RMK A01 T01111097  RH  022%=      5-min Rain = 0
KPVS 240327Z 23012KT 11/M10 A2981 RMK A01 T01111097  RH  022%=      5-min Rain = 0
KPVS 240328Z 23013KT 11/M10 A2981 RMK A01 T01101097  RH  022%=      5-min Rain = 0
KPVS 240329Z 23012G17KT 11/M10 A2981 RMK A01 T01101097  RH  022%=      5-min Rain = 0
KPVS 240330Z 23011KT 11/M10 A2981 RMK A01 T01111097  RH  022%=      5-min Rain = 0
KPVS 240331Z 23012KT 11/M10 A2981 RMK A01 T01111097  RH  022%=      5-min Rain = 0
KPVS 240332Z 23011KT 11/M10 A2981 RMK A01 T01111097  RH  022%=      5-min Rain = 0
KPVS 240333Z 23011KT 11/M10 A2981 RMK A01 T01111097  RH  022%=      5-min Rain = 0
KPVS 240334Z 23011KT 11/M10 A2981 RMK A01 T01111096  RH  022%=      5-min Rain = 0
KPVS 240335Z 24010KT 11/M10 A2981 RMK A01 T01111096  RH  022%=      5-min Rain = 0
KPVS 240336Z 24010KT 11/M10 A2981 RMK A01 T01101096  RH  023%=      5-min Rain = 0
KPVS 240337Z 24010KT 11/M10 A2981 RMK A01 T01091096  RH  023%=      5-min Rain = 0
KPVS 240338Z 24010KT 11/M10 A2981 RMK A01 T01091096  RH  023%=      5-min Rain = 0
KPVS 240339Z 24010KT 11/M10 A2982 RMK A01 T01081096  RH  023%=      5-min Rain = 0
KPVS 240340Z 24010KT 11/M10 A2982 RMK A01 T01081096  RH  023%=      5-min Rain = 0
KPVS 240341Z 25008KT 11/M10 A2982 RMK A01 T01081096  RH  023%=      5-min Rain = 0
KPVS 240342Z 25010KT 11/M10 A2982 RMK A01 T01071096  RH  023%=      5-min Rain = 0
KPVS 240343Z 25009KT 11/M10 A2982 RMK A01 T01071096  RH  023%=      5-min Rain = 0
KPVS 240344Z 24010KT 11/M10 A2982 RMK A01 T01071096  RH  023%=      5-min Rain = 0
KPVS 240345Z 24009G14KT 11/M10 A2982 RMK A01 T01071096  RH  023%=      5-min Rain = 0
KPVS 240346Z 24010G15KT 11/M10 A2982 RMK A01 T01081097  RH  023%=      5-min Rain = 0
KPVS 240347Z 24009KT 11/M10 A2982 RMK A01 T01091097  RH  023%=      5-min Rain = 0
KPVS 240348Z 24009KT 11/M10 A2982 RMK A01 T01101097  RH  022%=      5-min Rain = 0
KPVS 240349Z 24009KT 11/M10 A2982 RMK A01 T01101097  RH  022%=      5-min Rain = 0
KPVS 240350Z 24009KT 11/M10 A2982 RMK A01 T01111098  RH  022%=      5-min Rain = 0
KPVS 240351Z 24009KT 11/M10 A2982 RMK A01 T01111097  RH  022%=      5-min Rain = 0
KPVS 240352Z 25009KT 11/M10 A2982 RMK A01 T01111097  RH  022%=      5-min Rain = 0
KPVS 240353Z 24011KT 11/M10 A2982 RMK A01 T01111098  RH  022%=      5-min Rain = 0
KPVS 240354Z 24010KT 11/M10 A2982 RMK A01 T01131098  RH  022%=      5-min Rain = 0
KPVS 240355Z 24009KT 11/M10 A2982 RMK A01 T01141098  RH  022%=      5-min Rain = 0
KPVS 240356Z 24009KT 11/M10 A2982 RMK A01 T01141098  RH  022%=      5-min Rain = 0
KPVS 240357Z 24009KT 11/M10 A2982 RMK A01 T01141098  RH  022%=      5-min Rain = 0
KPVS 240358Z 25009KT 12/M10 A2982 RMK A01 T01151098  RH  022%=      5-min Rain = 0
KPVS 240359Z 25010KT 12/M10 A2982 RMK A01 T01151098  RH  021%=      5-min Rain = 0
KPVS 240400Z 24009KT 12/M10 A2982 RMK A01 T01151099  RH  021%=      5-min Rain = 0
KPVS 240401Z 25008KT 12/M10 A2982 RMK A01 T01161099  RH  021%=      5-min Rain = 0
KPVS 240402Z 25007KT 12/M10 A2982 RMK A01 T01161099  RH  021%=      5-min Rain = 0
KPVS 240403Z 25008KT 12/M10 A2982 RMK A01 T01171099  RH  021%=      5-min Rain = 0
KPVS 240404Z 25008G13KT 12/M10 A2983 RMK A01 T01171099  RH  021%=      5-min Rain = 0
KPVS 240405Z 25008G13KT 12/M10 A2983 RMK A01 T01181100  RH  021%=      5-min Rain = 0
KPVS 240406Z 25010G17KT 12/M10 A2983 RMK A01 T01191100  RH  021%=      5-min Rain = 0
KPVS 240407Z 25011G16KT 12/M10 A2982 RMK A01 T01221101  RH  020%=      5-min Rain = 0
KPVS 240408Z 24011G16KT 13/M10 A2982 RMK A01 T01251101  RH  020%=      5-min Rain = 0
KPVS 240409Z 24011G17KT 13/M10 A2982 RMK A01 T01271102  RH  019%=      5-min Rain = 0
KPVS 240410Z 24010G15KT 13/M10 A2982 RMK A01 T01281103  RH  019%=      5-min Rain = 0
KPVS 240411Z 24010KT 13/M10 A2982 RMK A01 T01281102  RH  019%=      5-min Rain = 0
KPVS 240412Z 24011KT 13/M10 A2982 RMK A01 T01281102  RH  019%=      5-min Rain = 0
KPVS 240413Z 24010KT 13/M10 A2982 RMK A01 T01271102  RH  019%=      5-min Rain = 0
KPVS 240414Z 24011G16KT 13/M10 A2982 RMK A01 T01271102  RH  019%=      5-min Rain = 0
KPVS 240415Z 24010KT 13/M10 A2982 RMK A01 T01271102  RH  019%=      5-min Rain = 0
KPVS 240416Z 24009KT 13/M10 A2982 RMK A01 T01261102  RH  019%=      5-min Rain = 0
KPVS 240417Z 25011G16KT 12/M10 A2982 RMK A01 T01241102  RH  020%=      5-min Rain = 0
KPVS 240418Z 25011KT 12/M10 A2983 RMK A01 T01241102  RH  019%=      5-min Rain = 0
KPVS 240419Z 25011G16KT 13/M10 A2983 RMK A01 T01261103  RH  019%=      5-min Rain = 0
KPVS 240420Z 26010KT 13/M10 A2983 RMK A01 T01261103  RH  019%=      5-min Rain = 0
KPVS 240421Z 26010KT 13/M10 A2983 RMK A01 T01261102  RH  019%=      5-min Rain = 0
KPVS 240422Z 26010KT 13/M10 A2983 RMK A01 T01261103  RH  019%=      5-min Rain = 0
KPVS 240423Z 26008KT 13/M10 A2983 RMK A01 T01251102  RH  019%=      5-min Rain = 0
KPVS 240424Z 26009KT 12/M10 A2983 RMK A01 T01241102  RH  020%=      5-min Rain = 0
KPVS 240425Z 26010KT 12/M10 A2983 RMK A01 T01241102  RH  020%=      5-min Rain = 0
KPVS 240426Z 26009G14KT 12/M10 A2983 RMK A01 T01231101  RH  020%=      5-min Rain = 0
KPVS 240427Z 26009KT 12/M10 A2983 RMK A01 T01231102  RH  020%=      5-min Rain = 0
KPVS 240428Z 25010G15KT 12/M10 A2983 RMK A01 T01241102  RH  020%=      5-min Rain = 0
KPVS 240429Z 25010G15KT 13/M10 A2983 RMK A01 T01251102  RH  020%=      5-min Rain = 0
KPVS 240430Z 25011KT 13/M10 A2983 RMK A01 T01261102  RH  019%=      5-min Rain = 0
KPVS 240431Z 25009KT 13/M10 A2983 RMK A01 T01261102  RH  019%=      5-min Rain = 0
KPVS 240432Z 25011KT 13/M10 A2983 RMK A01 T01261102  RH  019%=      5-min Rain = 0
KPVS 240433Z 25011KT 13/M10 A2983 RMK A01 T01271102  RH  019%=      5-min Rain = 0
KPVS 240434Z 25011G16KT 13/M10 A2983 RMK A01 T01281102  RH  019%=      5-min Rain = 0
KPVS 240435Z 25011G18KT 13/M10 A2983 RMK A01 T01291102  RH  019%=      5-min Rain = 0
KPVS 240436Z 25010KT 13/M10 A2983 RMK A01 T01301102  RH  019%=      5-min Rain = 0
KPVS 240437Z 25011G17KT 13/M10 A2983 RMK A01 T01301102  RH  019%=      5-min Rain = 0
KPVS 240438Z 25010KT 13/M10 A2983 RMK A01 T01301102  RH  019%=      5-min Rain = 0
KPVS 240439Z 25011KT 13/M10 A2983 RMK A01 T01301102  RH  019%=      5-min Rain = 0
KPVS 240440Z 25012G18KT 13/M10 A2983 RMK A01 T01301102  RH  019%=      5-min Rain = 0
KPVS 240441Z 25011G18KT 13/M10 A2983 RMK A01 T01321102  RH  019%=      5-min Rain = 0
KPVS 240442Z 25011KT 13/M10 A2983 RMK A01 T01331102  RH  019%=      5-min Rain = 0
KPVS 240443Z 25011G16KT 13/M10 A2983 RMK A01 T01331102  RH  019%=      5-min Rain = 0
KPVS 240444Z 25010G15KT 13/M10 A2983 RMK A01 T01321101  RH  019%=      5-min Rain = 0
KPVS 240445Z 25011G18KT 13/M10 A2983 RMK A01 T01321101  RH  019%=      5-min Rain = 0
KPVS 240446Z 25010G16KT 13/M10 A2983 RMK A01 T01321101  RH  019%=      5-min Rain = 0
KPVS 240447Z 25012KT 13/M10 A2983 RMK A01 T01331101  RH  019%=      5-min Rain = 0
KPVS 240448Z 25010G17KT 13/M10 A2983 RMK A01 T01331101  RH  019%=      5-min Rain = 0
KPVS 240449Z 25012G18KT 13/M10 A2983 RMK A01 T01341100  RH  019%=      5-min Rain = 0
KPVS 240450Z 26012G17KT 13/M10 A2983 RMK A01 T01331100  RH  019%=      5-min Rain = 0
KPVS 240451Z 26011KT 13/M10 A2983 RMK A01 T01341100  RH  019%=      5-min Rain = 0
KPVS 240452Z 26013KT 13/M10 A2983 RMK A01 T01341100  RH  019%=      5-min Rain = 0
KPVS 240453Z 26012G17KT 14/M10 A2983 RMK A01 T01351100  RH  019%=      5-min Rain = 0
KPVS 240454Z 26011G16KT 14/M10 A2983 RMK A01 T01351100  RH  019%=      5-min Rain = 0
KPVS 240455Z 26012G17KT 14/M10 A2983 RMK A01 T01351100  RH  019%=      5-min Rain = 0
KPVS 240456Z 26012G17KT 14/M10 A2983 RMK A01 T01361099  RH  018%=      5-min Rain = 0
KPVS 240457Z 26011G17KT 14/M10 A2983 RMK A01 T01361099  RH  018%=      5-min Rain = 0
KPVS 240458Z 26013KT 14/M10 A2983 RMK A01 T01371100  RH  018%=      5-min Rain = 0
KPVS 240459Z 25012KT 14/M10 A2983 RMK A01 T01371100  RH  018%=      5-min Rain = 0
KPVS 240500Z 25011G16KT 14/M10 A2983 RMK A01 T01361099  RH  019%=      5-min Rain = 0
KPVS 240501Z 25010KT 14/M10 A2983 RMK A01 T01361099  RH  019%=      5-min Rain = 0
KPVS 240502Z 25012G19KT 14/M10 A2983 RMK A01 T01361099  RH  019%=      5-min Rain = 0
KPVS 240503Z 25013G19KT 14/M10 A2983 RMK A01 T01351098  RH  019%=      5-min Rain = 0
KPVS 240504Z 25014G20KT 14/M10 A2983 RMK A01 T01351098  RH  019%=      5-min Rain = 0
KPVS 240505Z 25014G19KT 14/M10 A2983 RMK A01 T01361099  RH  019%=      5-min Rain = 0
KPVS 240506Z 26013G20KT 14/M10 A2983 RMK A01 T01371099  RH  018%=      5-min Rain = 0
KPVS 240507Z 25013G19KT 14/M10 A2983 RMK A01 T01381098  RH  018%=      5-min Rain = 0
KPVS 240508Z 26014G19KT 14/M10 A2983 RMK A01 T01381099  RH  018%=      5-min Rain = 0
KPVS 240509Z 26015G21KT 14/M10 A2983 RMK A01 T01381099  RH  018%=      5-min Rain = 0
KPVS 240510Z 26014G20KT 14/M10 A2983 RMK A01 T01401099  RH  018%=      5-min Rain = 0
KPVS 240511Z 25016G23KT 14/M10 A2983 RMK A01 T01411099  RH  018%=      5-min Rain = 0
KPVS 240512Z 26016G22KT 14/M10 A2983 RMK A01 T01421099  RH  018%=      5-min Rain = 0
KPVS 240513Z 25014G23KT 14/M10 A2983 RMK A01 T01421098  RH  018%=      5-min Rain = 0
KPVS 240514Z 25015G23KT 14/M10 A2983 RMK A01 T01411098  RH  018%=      5-min Rain = 0
KPVS 240515Z 25014G21KT 14/M10 A2983 RMK A01 T01411098  RH  018%=      5-min Rain = 0
KPVS 240516Z 25014G21KT 14/M10 A2983 RMK A01 T01411098  RH  018%=      5-min Rain = 0
KPVS 240517Z 25014G23KT 14/M10 A2983 RMK A01 T01411098  RH  018%=      5-min Rain = 0
KPVS 240518Z 26014G20KT 14/M10 A2983 RMK A01 T01411098  RH  018%=      5-min Rain = 0
KPVS 240519Z 26015G22KT 14/M10 A2983 RMK A01 T01411097  RH  018%=      5-min Rain = 0
KPVS 240520Z 25014G21KT 14/M10 A2983 RMK A01 T01411097  RH  018%=      5-min Rain = 0
KPVS 240521Z 26013G19KT 14/M10 A2983 RMK A01 T01401097  RH  018%=      5-min Rain = 0
KPVS 240522Z 26013G18KT 14/M10 A2983 RMK A01 T01401097  RH  018%=      5-min Rain = 0
KPVS 240523Z 25012G18KT 14/M10 A2983 RMK A01 T01391096  RH  019%=      5-min Rain = 0
KPVS 240524Z 26013G19KT 14/M10 A2983 RMK A01 T01391096  RH  019%=      5-min Rain = 0
KPVS 240525Z 26012G19KT 14/M10 A2983 RMK A01 T01381096  RH  019%=      5-min Rain = 0
KPVS 240526Z 25012G17KT 14/M10 A2983 RMK A01 T01371096  RH  019%=      5-min Rain = 0
KPVS 240527Z 25013G18KT 14/M10 A2983 RMK A01 T01361095  RH  019%=      5-min Rain = 0
KPVS 240528Z 25012G17KT 14/M10 A2983 RMK A01 T01361095  RH  019%=      5-min Rain = 0
KPVS 240529Z 25012G18KT 14/M10 A2983 RMK A01 T01351095  RH  019%=      5-min Rain = 0
KPVS 240530Z 25012G19KT 14/M09 A2983 RMK A01 T01351094  RH  019%=      5-min Rain = 0
KPVS 240531Z 25012KT 13/M09 A2983 RMK A01 T01341094  RH  020%=      5-min Rain = 0
KPVS 240532Z 26010KT 13/M09 A2983 RMK A01 T01341094  RH  020%=      5-min Rain = 0
KPVS 240533Z 25010G16KT 13/M09 A2983 RMK A01 T01331094  RH  020%=      5-min Rain = 0
KPVS 240534Z 25011G16KT 13/M09 A2983 RMK A01 T01321093  RH  020%=      5-min Rain = 0
KPVS 240535Z 25012KT 13/M09 A2983 RMK A01 T01311093  RH  020%=      5-min Rain = 0
KPVS 240536Z 26012KT 13/M09 A2983 RMK A01 T01311093  RH  020%=      5-min Rain = 0
KPVS 240537Z 25010G16KT 13/M09 A2983 RMK A01 T01301093  RH  020%=      5-min Rain = 0
KPVS 240538Z 25010G15KT 13/M09 A2983 RMK A01 T01291093  RH  020%=      5-min Rain = 0
KPVS 240539Z 25011KT 13/M09 A2983 RMK A01 T01291093  RH  020%=      5-min Rain = 0
KPVS 240540Z 25012G17KT 13/M09 A2983 RMK A01 T01291093  RH  020%=      5-min Rain = 0
KPVS 240541Z 25010G15KT 13/M09 A2983 RMK A01 T01281093  RH  021%=      5-min Rain = 0
KPVS 240542Z 25010G15KT 13/M09 A2983 RMK A01 T01281093  RH  021%=      5-min Rain = 0
KPVS 240543Z 25009KT 13/M09 A2983 RMK A01 T01271092  RH  021%=      5-min Rain = 0
KPVS 240544Z 25008G13KT 13/M09 A2983 RMK A01 T01261092  RH  021%=      5-min Rain = 0
KPVS 240545Z 26010KT 13/M09 A2983 RMK A01 T01261092  RH  021%=      5-min Rain = 0
KPVS 240546Z 26009KT 13/M09 A2983 RMK A01 T01261093  RH  021%=      5-min Rain = 0
KPVS 240547Z 26008KT 13/M09 A2984 RMK A01 T01261093  RH  021%=      5-min Rain = 0
KPVS 240548Z 26007KT 13/M09 A2984 RMK A01 T01251092  RH  021%=      5-min Rain = 0
KPVS 240549Z 27008KT 12/M09 A2984 RMK A01 T01241092  RH  021%=      5-min Rain = 0
KPVS 240550Z 27007KT 12/M09 A2984 RMK A01 T01221091  RH  022%=      5-min Rain = 0
KPVS 240551Z 27008KT 12/M09 A2984 RMK A01 T01191090  RH  022%=      5-min Rain = 0
KPVS 240552Z 27008KT 12/M09 A2984 RMK A01 T01171090  RH  023%=      5-min Rain = 0
KPVS 240553Z 27008KT 12/M09 A2984 RMK A01 T01151090  RH  023%=      5-min Rain = 0
KPVS 240554Z 27008KT 12/M09 A2984 RMK A01 T01151089  RH  023%=      5-min Rain = 0
KPVS 240555Z 27008KT 12/M09 A2984 RMK A01 T01151089  RH  023%=      5-min Rain = 0
KPVS 240556Z 27007KT 12/M09 A2984 RMK A01 T01151090  RH  023%=      5-min Rain = 0
KPVS 240557Z 27008KT 12/M09 A2984 RMK A01 T01151089  RH  023%=      5-min Rain = 0
KPVS 240558Z 26009KT 12/M09 A2984 RMK A01 T01161090  RH  023%=      5-min Rain = 0
KPVS 240559Z 26010G16KT 12/M09 A2984 RMK A01 T01181090  RH  022%=      5-min Rain = 0

Page generated in 0.1386 seconds.